Observation data for Lake McClellan 2NW on 05/24/2020      Previous  Date  Next       Current Mesonet Observations  Soil Data  Daily Summary Page  Observations in Plain Language
KMC5 240500Z 17011KT 18/12 A2984 RMK A01 T01810119  RH  067%=      5-min Rain = 0
KMC5 240501Z 16010KT 18/12 A2984 RMK A01 T01810119  RH  067%=      5-min Rain = 0
KMC5 240502Z 16010KT 18/12 A2983 RMK A01 T01810118  RH  067%=      5-min Rain = 0
KMC5 240503Z 15009KT 18/12 A2983 RMK A01 T01820118  RH  066%=      5-min Rain = 0
KMC5 240504Z 16009KT 18/12 A2983 RMK A01 T01820119  RH  067%=      5-min Rain = 0
KMC5 240505Z 16009KT 18/12 A2983 RMK A01 T01820119  RH  067%=      5-min Rain = 0
KMC5 240506Z 16010KT 18/12 A2983 RMK A01 T01810120  RH  067%=      5-min Rain = 0
KMC5 240507Z 16009KT 18/12 A2983 RMK A01 T01810118  RH  067%=      5-min Rain = 0
KMC5 240508Z 16008KT 18/12 A2983 RMK A01 T01810120  RH  067%=      5-min Rain = 0
KMC5 240509Z 16009KT 18/12 A2983 RMK A01 T01810120  RH  067%=      5-min Rain = 0
KMC5 240510Z 15010KT 18/12 A2983 RMK A01 T01800119  RH  067%=      5-min Rain = 0
KMC5 240511Z 15010KT 18/12 A2983 RMK A01 T01810120  RH  067%=      5-min Rain = 0
KMC5 240512Z 15009KT 18/12 A2983 RMK A01 T01800119  RH  067%=      5-min Rain = 0
KMC5 240513Z 15009KT 18/12 A2983 RMK A01 T01800119  RH  067%=      5-min Rain = 0
KMC5 240514Z 15009KT 18/12 A2983 RMK A01 T01800119  RH  067%=      5-min Rain = 0
KMC5 240515Z 15010KT 18/12 A2983 RMK A01 T01800120  RH  068%=      5-min Rain = 0
KMC5 240516Z 15011KT 18/12 A2983 RMK A01 T01800119  RH  067%=      5-min Rain = 0
KMC5 240517Z 15012KT 18/12 A2983 RMK A01 T01810119  RH  067%=      5-min Rain = 0
KMC5 240518Z 14011KT 18/12 A2983 RMK A01 T01810118  RH  067%=      5-min Rain = 0
KMC5 240519Z 14010KT 18/12 A2983 RMK A01 T01820120  RH  067%=      5-min Rain = 0
KMC5 240520Z 14011KT 18/12 A2983 RMK A01 T01810120  RH  067%=      5-min Rain = 0
KMC5 240521Z 13009KT 18/12 A2983 RMK A01 T01800120  RH  068%=      5-min Rain = 0
KMC5 240522Z 13010KT 18/12 A2983 RMK A01 T01790121  RH  068%=      5-min Rain = 0
KMC5 240523Z 14009KT 18/12 A2983 RMK A01 T01790120  RH  068%=      5-min Rain = 0
KMC5 240524Z 13009KT 18/12 A2983 RMK A01 T01790120  RH  068%=      5-min Rain = 0
KMC5 240525Z 13010KT 18/12 A2983 RMK A01 T01790120  RH  068%=      5-min Rain = 0
KMC5 240526Z 13009KT 18/12 A2983 RMK A01 T01790121  RH  069%=      5-min Rain = 0
KMC5 240527Z 13010KT 18/12 A2983 RMK A01 T01780122  RH  069%=      5-min Rain = 0
KMC5 240528Z 13010KT 18/12 A2983 RMK A01 T01770121  RH  070%=      5-min Rain = 0
KMC5 240529Z 13009KT 18/12 A2983 RMK A01 T01770122  RH  070%=      5-min Rain = 0
KMC5 240530Z 14009KT 18/12 A2983 RMK A01 T01760122  RH  070%=      5-min Rain = 0
KMC5 240531Z 14009KT 18/12 A2983 RMK A01 T01760122  RH  071%=      5-min Rain = 0
KMC5 240532Z 14010KT 18/12 A2983 RMK A01 T01760122  RH  071%=      5-min Rain = 0
KMC5 240533Z 14009KT 18/12 A2983 RMK A01 T01750122  RH  071%=      5-min Rain = 0
KMC5 240534Z 14009KT 18/12 A2983 RMK A01 T01750122  RH  071%=      5-min Rain = 0
KMC5 240535Z 13010KT 18/12 A2983 RMK A01 T01760122  RH  071%=      5-min Rain = 0
KMC5 240536Z 12009KT 18/12 A2983 RMK A01 T01750122  RH  071%=      5-min Rain = 0
KMC5 240537Z 12009KT 18/12 A2983 RMK A01 T01750123  RH  072%=      5-min Rain = 0
KMC5 240538Z 12009KT 17/12 A2983 RMK A01 T01740123  RH  072%=      5-min Rain = 0
KMC5 240539Z 13008KT 17/12 A2983 RMK A01 T01730122  RH  072%=      5-min Rain = 0
KMC5 240540Z 13008KT 17/12 A2983 RMK A01 T01730123  RH  072%=      5-min Rain = 0
KMC5 240541Z 14010KT 17/12 A2983 RMK A01 T01730122  RH  072%=      5-min Rain = 0
KMC5 240542Z 14010KT 17/12 A2983 RMK A01 T01730122  RH  072%=      5-min Rain = 0
KMC5 240543Z 14010KT 17/12 A2983 RMK A01 T01730123  RH  072%=      5-min Rain = 0
KMC5 240544Z 14010KT 17/12 A2983 RMK A01 T01730123  RH  073%=      5-min Rain = 0
KMC5 240545Z 14010KT 17/12 A2983 RMK A01 T01730122  RH  072%=      5-min Rain = 0
KMC5 240546Z 14011KT 17/12 A2983 RMK A01 T01730122  RH  072%=      5-min Rain = 0
KMC5 240547Z 14010KT 17/12 A2983 RMK A01 T01740123  RH  072%=      5-min Rain = 0
KMC5 240548Z 14011KT 17/12 A2984 RMK A01 T01740122  RH  072%=      5-min Rain = 0
KMC5 240549Z 15010KT 17/12 A2984 RMK A01 T01740122  RH  071%=      5-min Rain = 0
KMC5 240550Z 14009KT 18/12 A2984 RMK A01 T01750122  RH  071%=      5-min Rain = 0
KMC5 240551Z 13008KT 18/12 A2984 RMK A01 T01750122  RH  071%=      5-min Rain = 0
KMC5 240552Z 13008KT 17/12 A2984 RMK A01 T01740123  RH  072%=      5-min Rain = 0
KMC5 240553Z 13007KT 17/12 A2984 RMK A01 T01730123  RH  072%=      5-min Rain = 0
KMC5 240554Z 13006KT 17/12 A2984 RMK A01 T01720123  RH  073%=      5-min Rain = 0
KMC5 240555Z 11006KT 17/12 A2984 RMK A01 T01720123  RH  073%=      5-min Rain = 0
KMC5 240556Z 11007KT 17/12 A2984 RMK A01 T01710123  RH  074%=      5-min Rain = 0
KMC5 240557Z 11008KT 17/12 A2984 RMK A01 T01710123  RH  074%=      5-min Rain = 0
KMC5 240558Z 10007KT 17/12 A2984 RMK A01 T01710123  RH  073%=      5-min Rain = 0
KMC5 240559Z 11005KT 17/12 A2984 RMK A01 T01710123  RH  074%=      5-min Rain = 0
KMC5 240600Z 13004KT 17/12 A2984 RMK A01 T01700124  RH  074%=      5-min Rain = 0
KMC5 240601Z 13004KT 17/12 A2984 RMK A01 T01700123  RH  074%=      5-min Rain = 0
KMC5 240602Z 11005KT 17/12 A2984 RMK A01 T01690123  RH  074%=      5-min Rain = 0
KMC5 240603Z 10005KT 17/12 A2984 RMK A01 T01690123  RH  074%=      5-min Rain = 0
KMC5 240604Z 10006KT 17/12 A2984 RMK A01 T01680123  RH  074%=      5-min Rain = 0
KMC5 240605Z 10007KT 17/12 A2984 RMK A01 T01690123  RH  074%=      5-min Rain = 0
KMC5 240606Z 11007KT 17/12 A2984 RMK A01 T01680122  RH  074%=      5-min Rain = 0
KMC5 240607Z 11006KT 17/12 A2984 RMK A01 T01690123  RH  074%=      5-min Rain = 0
KMC5 240608Z 11007KT 17/12 A2984 RMK A01 T01690123  RH  074%=      5-min Rain = 0
KMC5 240609Z 11008KT 17/12 A2984 RMK A01 T01690122  RH  074%=      5-min Rain = 0
KMC5 240610Z 11007KT 17/12 A2985 RMK A01 T01700123  RH  074%=      5-min Rain = 0
KMC5 240611Z 11008KT 17/12 A2984 RMK A01 T01700124  RH  074%=      5-min Rain = 0
KMC5 240612Z 11007KT 17/12 A2985 RMK A01 T01690123  RH  074%=      5-min Rain = 0
KMC5 240613Z 11006KT 17/12 A2984 RMK A01 T01690124  RH  075%=      5-min Rain = 0
KMC5 240614Z 11006KT 17/12 A2984 RMK A01 T01680124  RH  075%=      5-min Rain = 0
KMC5 240615Z 12006KT 17/12 A2984 RMK A01 T01670124  RH  075%=      5-min Rain = 0
KMC5 240616Z 12007KT 17/12 A2984 RMK A01 T01670124  RH  076%=      5-min Rain = 0
KMC5 240617Z 12006KT 17/12 A2984 RMK A01 T01670123  RH  075%=      5-min Rain = 0
KMC5 240618Z 11007KT 17/12 A2984 RMK A01 T01670123  RH  075%=      5-min Rain = 0
KMC5 240619Z 10007KT 17/12 A2984 RMK A01 T01670123  RH  075%=      5-min Rain = 0
KMC5 240620Z 11007KT 17/12 A2984 RMK A01 T01670123  RH  076%=      5-min Rain = 0
KMC5 240621Z 12007KT 17/12 A2984 RMK A01 T01670123  RH  075%=      5-min Rain = 0
KMC5 240622Z 14005KT 17/12 A2985 RMK A01 T01670124  RH  075%=      5-min Rain = 0
KMC5 240623Z 14005KT 17/12 A2985 RMK A01 T01670124  RH  076%=      5-min Rain = 0
KMC5 240624Z 12005KT 17/12 A2985 RMK A01 T01660123  RH  076%=      5-min Rain = 0
KMC5 240625Z 09007KT 17/12 A2984 RMK A01 T01660124  RH  076%=      5-min Rain = 0
KMC5 240626Z 08008KT 17/12 A2984 RMK A01 T01650124  RH  076%=      5-min Rain = 0
KMC5 240627Z 09007KT 17/12 A2984 RMK A01 T01650124  RH  077%=      5-min Rain = 0
KMC5 240628Z 10005KT 16/12 A2985 RMK A01 T01640124  RH  077%=      5-min Rain = 0
KMC5 240629Z 13004KT 17/12 A2985 RMK A01 T01650124  RH  077%=      5-min Rain = 0
KMC5 240630Z 14004KT 17/12 A2985 RMK A01 T01650124  RH  076%=      5-min Rain = 0
KMC5 240631Z 12004KT 17/12 A2985 RMK A01 T01650123  RH  076%=      5-min Rain = 0
KMC5 240632Z 11005KT 17/12 A2984 RMK A01 T01660123  RH  076%=      5-min Rain = 0
KMC5 240633Z 10006KT 17/12 A2984 RMK A01 T01660124  RH  076%=      5-min Rain = 0
KMC5 240634Z 09007KT 17/12 A2983 RMK A01 T01660124  RH  076%=      5-min Rain = 0
KMC5 240635Z 09007KT 17/12 A2983 RMK A01 T01660124  RH  076%=      5-min Rain = 0
KMC5 240636Z 12005KT 17/12 A2984 RMK A01 T01660124  RH  076%=      5-min Rain = 0
KMC5 240637Z 21005KT 17/13 A2985 RMK A01 T01660125  RH  077%=      5-min Rain = 0
KMC5 240638Z 21006KT 17/13 A2985 RMK A01 T01650125  RH  078%=      5-min Rain = 0
KMC5 240639Z 19006KT 16/13 A2985 RMK A01 T01640126  RH  078%=      5-min Rain = 0
KMC5 240640Z 15004KT 16/13 A2985 RMK A01 T01630125  RH  078%=      5-min Rain = 0
KMC5 240641Z 11005KT 16/12 A2985 RMK A01 T01630124  RH  078%=      5-min Rain = 0
KMC5 240642Z 10006KT 16/12 A2984 RMK A01 T01640124  RH  077%=      5-min Rain = 0
KMC5 240643Z 11007KT 16/13 A2984 RMK A01 T01640125  RH  078%=      5-min Rain = 0
KMC5 240644Z 11008KT 16/13 A2984 RMK A01 T01640125  RH  078%=      5-min Rain = 0
KMC5 240645Z 12007KT 16/13 A2985 RMK A01 T01640125  RH  078%=      5-min Rain = 0
KMC5 240646Z 12006KT 16/13 A2985 RMK A01 T01640125  RH  078%=      5-min Rain = 0
KMC5 240647Z 12006KT 16/12 A2985 RMK A01 T01630124  RH  078%=      5-min Rain = 0
KMC5 240648Z 14006KT 16/12 A2985 RMK A01 T01630123  RH  077%=      5-min Rain = 0
KMC5 240649Z 14005KT 17/12 A2985 RMK A01 T01650123  RH  076%=      5-min Rain = 0
KMC5 240650Z 13004KT 17/12 A2985 RMK A01 T01650123  RH  076%=      5-min Rain = 0
KMC5 240651Z 13004KT 17/12 A2985 RMK A01 T01650123  RH  076%=      5-min Rain = 0
KMC5 240652Z 13004KT 17/12 A2985 RMK A01 T01650124  RH  076%=      5-min Rain = 0
KMC5 240653Z 13005KT 17/12 A2985 RMK A01 T01650124  RH  076%=      5-min Rain = 0
KMC5 240654Z 13005KT 16/12 A2985 RMK A01 T01640124  RH  077%=      5-min Rain = 0
KMC5 240655Z 14006KT 16/12 A2985 RMK A01 T01640123  RH  077%=      5-min Rain = 0
KMC5 240656Z 13005KT 16/12 A2985 RMK A01 T01640123  RH  077%=      5-min Rain = 0
KMC5 240657Z 12006KT 16/12 A2984 RMK A01 T01640122  RH  076%=      5-min Rain = 0
KMC5 240658Z 12006KT 16/12 A2984 RMK A01 T01640122  RH  076%=      5-min Rain = 0
KMC5 240659Z 12006KT 16/12 A2984 RMK A01 T01640123  RH  077%=      5-min Rain = 0
KMC5 240700Z 12006KT 16/12 A2984 RMK A01 T01640123  RH  077%=      5-min Rain = 0
KMC5 240701Z 14006KT 16/12 A2984 RMK A01 T01640123  RH  077%=      5-min Rain = 0
KMC5 240702Z 14006KT 16/12 A2984 RMK A01 T01640123  RH  077%=      5-min Rain = 0
KMC5 240703Z 14006KT 16/12 A2984 RMK A01 T01640122  RH  076%=      5-min Rain = 0
KMC5 240704Z 14006KT 17/12 A2984 RMK A01 T01650122  RH  076%=      5-min Rain = 0
KMC5 240705Z 13006KT 17/12 A2984 RMK A01 T01660122  RH  075%=      5-min Rain = 0
KMC5 240706Z 13006KT 17/12 A2984 RMK A01 T01660123  RH  076%=      5-min Rain = 0
KMC5 240707Z 14006KT 17/12 A2984 RMK A01 T01650123  RH  076%=      5-min Rain = 0
KMC5 240708Z 14008KT 16/12 A2985 RMK A01 T01640122  RH  076%=      5-min Rain = 0
KMC5 240709Z 14007KT 17/12 A2985 RMK A01 T01650123  RH  076%=      5-min Rain = 0
KMC5 240710Z 13007KT 17/12 A2985 RMK A01 T01650122  RH  076%=      5-min Rain = 0
KMC5 240711Z 14007KT 17/12 A2985 RMK A01 T01650123  RH  076%=      5-min Rain = 0
KMC5 240712Z 13006KT 17/12 A2985 RMK A01 T01650123  RH  076%=      5-min Rain = 0
KMC5 240713Z 13006KT 16/12 A2985 RMK A01 T01640123  RH  077%=      5-min Rain = 0
KMC5 240714Z 13006KT 16/12 A2985 RMK A01 T01630123  RH  077%=      5-min Rain = 0
KMC5 240715Z 13006KT 16/12 A2985 RMK A01 T01630123  RH  077%=      5-min Rain = 0
KMC5 240716Z 13006KT 16/12 A2985 RMK A01 T01620123  RH  078%=      5-min Rain = 0
KMC5 240717Z 14005KT 16/12 A2985 RMK A01 T01620123  RH  078%=      5-min Rain = 0
KMC5 240718Z 15006KT 16/12 A2985 RMK A01 T01620122  RH  077%=      5-min Rain = 0
KMC5 240719Z 15006KT 16/12 A2985 RMK A01 T01620122  RH  077%=      5-min Rain = 0
KMC5 240720Z 14005KT 16/12 A2985 RMK A01 T01630122  RH  077%=      5-min Rain = 0
KMC5 240721Z 14005KT 16/12 A2985 RMK A01 T01640123  RH  077%=      5-min Rain = 0
KMC5 240722Z 13005KT 16/12 A2985 RMK A01 T01630123  RH  077%=      5-min Rain = 0
KMC5 240723Z 12005KT 16/12 A2985 RMK A01 T01630123  RH  077%=      5-min Rain = 0
KMC5 240724Z 12007KT 16/12 A2985 RMK A01 T01620123  RH  078%=      5-min Rain = 0
KMC5 240725Z 12008KT 16/12 A2985 RMK A01 T01600123  RH  079%=      5-min Rain = 0
KMC5 240726Z 13008KT 16/12 A2985 RMK A01 T01600123  RH  079%=      5-min Rain = 0
KMC5 240727Z 13007KT 16/12 A2985 RMK A01 T01600123  RH  079%=      5-min Rain = 0
KMC5 240728Z 13007KT 16/12 A2985 RMK A01 T01600123  RH  079%=      5-min Rain = 0
KMC5 240729Z 14007KT 16/12 A2985 RMK A01 T01600123  RH  078%=      5-min Rain = 0
KMC5 240730Z 15007KT 16/12 A2985 RMK A01 T01610123  RH  078%=      5-min Rain = 0
KMC5 240731Z 15008KT 16/12 A2986 RMK A01 T01610123  RH  078%=      5-min Rain = 0
KMC5 240732Z 15007KT 16/12 A2985 RMK A01 T01610123  RH  078%=      5-min Rain = 0
KMC5 240733Z 13008KT 16/12 A2985 RMK A01 T01610123  RH  078%=      5-min Rain = 0
KMC5 240734Z 13007KT 16/12 A2985 RMK A01 T01610122  RH  078%=      5-min Rain = 0
KMC5 240735Z 13007KT 16/12 A2985 RMK A01 T01620123  RH  078%=      5-min Rain = 0
KMC5 240736Z 15008KT 16/12 A2985 RMK A01 T01620122  RH  077%=      5-min Rain = 0
KMC5 240737Z 16010KT 16/12 A2986 RMK A01 T01630122  RH  077%=      5-min Rain = 0
KMC5 240738Z 15007KT 16/12 A2986 RMK A01 T01640121  RH  076%=      5-min Rain = 0
KMC5 240739Z 14007KT 17/12 A2985 RMK A01 T01650122  RH  076%=      5-min Rain = 0
KMC5 240740Z 14009KT 16/12 A2985 RMK A01 T01640122  RH  076%=      5-min Rain = 0
KMC5 240741Z 15010KT 17/12 A2986 RMK A01 T01650121  RH  075%=      5-min Rain = 0
KMC5 240742Z 15010KT 17/12 A2986 RMK A01 T01650121  RH  075%=      5-min Rain = 0
KMC5 240743Z 14009KT 17/12 A2985 RMK A01 T01660121  RH  075%=      5-min Rain = 0
KMC5 240744Z 14009KT 17/12 A2985 RMK A01 T01660121  RH  075%=      5-min Rain = 0
KMC5 240745Z 14008KT 17/12 A2985 RMK A01 T01660120  RH  074%=      5-min Rain = 0
KMC5 240746Z 15008KT 17/12 A2985 RMK A01 T01670121  RH  074%=      5-min Rain = 0
KMC5 240747Z 15010KT 17/12 A2985 RMK A01 T01670120  RH  074%=      5-min Rain = 0
KMC5 240748Z 15008KT 17/12 A2985 RMK A01 T01670120  RH  074%=      5-min Rain = 0
KMC5 240749Z 15008KT 17/12 A2985 RMK A01 T01680121  RH  074%=      5-min Rain = 0
KMC5 240750Z 17010KT 17/12 A2985 RMK A01 T01670120  RH  074%=      5-min Rain = 0
KMC5 240751Z 18010KT 17/12 A2985 RMK A01 T01670121  RH  074%=      5-min Rain = 0
KMC5 240752Z 18010KT 17/12 A2985 RMK A01 T01670121  RH  074%=      5-min Rain = 0
KMC5 240753Z 16011KT 17/12 A2985 RMK A01 T01670120  RH  073%=      5-min Rain = 0
KMC5 240754Z 14011KT 17/12 A2985 RMK A01 T01680119  RH  073%=      5-min Rain = 0
KMC5 240755Z 14010KT 17/12 A2985 RMK A01 T01690119  RH  072%=      5-min Rain = 0
KMC5 240756Z 13010KT 17/12 A2985 RMK A01 T01690120  RH  073%=      5-min Rain = 0
KMC5 240757Z 13010KT 17/12 A2984 RMK A01 T01680120  RH  073%=      5-min Rain = 0
KMC5 240758Z 13009KT 17/12 A2984 RMK A01 T01670120  RH  074%=      5-min Rain = 0
KMC5 240759Z 13009KT 17/12 A2984 RMK A01 T01670120  RH  074%=      5-min Rain = 0
KMC5 240800Z 14009KT 17/12 A2985 RMK A01 T01670120  RH  074%=      5-min Rain = 0
KMC5 240801Z 14010KT 17/12 A2985 RMK A01 T01670119  RH  074%=      5-min Rain = 0
KMC5 240802Z 14009KT 17/12 A2985 RMK A01 T01670119  RH  073%=      5-min Rain = 0
KMC5 240803Z 15008KT 17/12 A2985 RMK A01 T01670119  RH  073%=      5-min Rain = 0
KMC5 240804Z 15008KT 17/12 A2985 RMK A01 T01680120  RH  073%=      5-min Rain = 0
KMC5 240805Z 15009KT 17/12 A2985 RMK A01 T01670120  RH  074%=      5-min Rain = 0
KMC5 240806Z 15008KT 17/12 A2985 RMK A01 T01670119  RH  073%=      5-min Rain = 0
KMC5 240807Z 14009KT 17/12 A2985 RMK A01 T01670120  RH  074%=      5-min Rain = 0
KMC5 240808Z 15009KT 17/12 A2985 RMK A01 T01670120  RH  074%=      5-min Rain = 0
KMC5 240809Z 16009KT 17/12 A2985 RMK A01 T01670119  RH  073%=      5-min Rain = 0
KMC5 240810Z 16009KT 17/12 A2985 RMK A01 T01670120  RH  073%=      5-min Rain = 0
KMC5 240811Z 16008KT 17/12 A2985 RMK A01 T01670120  RH  074%=      5-min Rain = 0
KMC5 240812Z 15009KT 17/12 A2985 RMK A01 T01660120  RH  074%=      5-min Rain = 0
KMC5 240813Z 15009KT 17/12 A2985 RMK A01 T01660119  RH  074%=      5-min Rain = 0
KMC5 240814Z 15007KT 17/12 A2985 RMK A01 T01660120  RH  074%=      5-min Rain = 0
KMC5 240815Z 15009KT 17/12 A2985 RMK A01 T01660120  RH  074%=      5-min Rain = 0
KMC5 240816Z 15008KT 17/12 A2985 RMK A01 T01660119  RH  074%=      5-min Rain = 0
KMC5 240817Z 15008KT 17/12 A2985 RMK A01 T01660120  RH  074%=      5-min Rain = 0
KMC5 240818Z 15009KT 17/12 A2985 RMK A01 T01660120  RH  074%=      5-min Rain = 0
KMC5 240819Z 15009KT 17/12 A2985 RMK A01 T01660119  RH  074%=      5-min Rain = 0
KMC5 240820Z 15009KT 17/12 A2985 RMK A01 T01670119  RH  073%=      5-min Rain = 0
KMC5 240821Z 15009KT 17/12 A2986 RMK A01 T01670120  RH  074%=      5-min Rain = 0
KMC5 240822Z 15008KT 17/12 A2985 RMK A01 T01670120  RH  074%=      5-min Rain = 0
KMC5 240823Z 14008KT 17/12 A2985 RMK A01 T01660120  RH  074%=      5-min Rain = 0
KMC5 240824Z 14008KT 17/12 A2985 RMK A01 T01650120  RH  074%=      5-min Rain = 0
KMC5 240825Z 14009KT 17/12 A2985 RMK A01 T01650119  RH  075%=      5-min Rain = 0
KMC5 240826Z 14008KT 17/12 A2985 RMK A01 T01650120  RH  075%=      5-min Rain = 0
KMC5 240827Z 15011KT 17/12 A2985 RMK A01 T01650119  RH  074%=      5-min Rain = 0
KMC5 240828Z 15009KT 17/12 A2985 RMK A01 T01660119  RH  074%=      5-min Rain = 0
KMC5 240829Z 15009KT 17/12 A2986 RMK A01 T01660120  RH  074%=      5-min Rain = 0
KMC5 240830Z 15009KT 17/12 A2986 RMK A01 T01650121  RH  075%=      5-min Rain = 0
KMC5 240831Z 16010KT 16/12 A2986 RMK A01 T01640120  RH  075%=      5-min Rain = 0
KMC5 240832Z 15009KT 16/12 A2986 RMK A01 T01640119  RH  075%=      5-min Rain = 0
KMC5 240833Z 15009KT 16/12 A2985 RMK A01 T01640120  RH  075%=      5-min Rain = 0
KMC5 240834Z 14009KT 16/12 A2986 RMK A01 T01640120  RH  075%=      5-min Rain = 0
KMC5 240835Z 15009KT 16/12 A2986 RMK A01 T01640120  RH  075%=      5-min Rain = 0
KMC5 240836Z 15008KT 16/12 A2986 RMK A01 T01640120  RH  075%=      5-min Rain = 0
KMC5 240837Z 15009KT 17/12 A2986 RMK A01 T01650120  RH  075%=      5-min Rain = 0
KMC5 240838Z 16009KT 16/12 A2986 RMK A01 T01640120  RH  075%=      5-min Rain = 0
KMC5 240839Z 16010KT 16/12 A2986 RMK A01 T01640119  RH  075%=      5-min Rain = 0
KMC5 240840Z 16008KT 16/12 A2986 RMK A01 T01640119  RH  074%=      5-min Rain = 0
KMC5 240841Z 16008KT 17/12 A2986 RMK A01 T01650120  RH  075%=      5-min Rain = 0
KMC5 240842Z 16010KT 16/12 A2986 RMK A01 T01640119  RH  075%=      5-min Rain = 0
KMC5 240843Z 16010KT 17/12 A2986 RMK A01 T01650119  RH  074%=      5-min Rain = 0
KMC5 240844Z 17011KT 17/12 A2986 RMK A01 T01650119  RH  074%=      5-min Rain = 0
KMC5 240845Z 17010KT 17/12 A2986 RMK A01 T01660119  RH  074%=      5-min Rain = 0
KMC5 240846Z 17013KT 17/12 A2986 RMK A01 T01660118  RH  073%=      5-min Rain = 0
KMC5 240847Z 16011KT 17/12 A2986 RMK A01 T01670118  RH  073%=      5-min Rain = 0
KMC5 240848Z 16010KT 17/12 A2985 RMK A01 T01680119  RH  073%=      5-min Rain = 0
KMC5 240849Z 15011KT 17/12 A2985 RMK A01 T01670119  RH  073%=      5-min Rain = 0
KMC5 240850Z 15011KT 17/12 A2985 RMK A01 T01670118  RH  073%=      5-min Rain = 0
KMC5 240851Z 16011G17KT 17/12 A2985 RMK A01 T01670118  RH  073%=      5-min Rain = 0
KMC5 240852Z 16010KT 17/12 A2985 RMK A01 T01670119  RH  073%=      5-min Rain = 0
KMC5 240853Z 15010KT 17/12 A2985 RMK A01 T01660119  RH  074%=      5-min Rain = 0
KMC5 240854Z 15009KT 17/12 A2985 RMK A01 T01660118  RH  074%=      5-min Rain = 0
KMC5 240855Z 15009KT 17/12 A2985 RMK A01 T01650119  RH  074%=      5-min Rain = 0
KMC5 240856Z 15008KT 17/12 A2985 RMK A01 T01650118  RH  074%=      5-min Rain = 0
KMC5 240857Z 14009KT 17/12 A2985 RMK A01 T01650119  RH  074%=      5-min Rain = 0
KMC5 240858Z 15008KT 16/12 A2986 RMK A01 T01640119  RH  074%=      5-min Rain = 0
KMC5 240859Z 16007KT 16/12 A2986 RMK A01 T01640119  RH  075%=      5-min Rain = 0
KMC5 240900Z 15007KT 16/12 A2986 RMK A01 T01630119  RH  075%=      5-min Rain = 0
KMC5 240901Z 14008KT 16/12 A2986 RMK A01 T01640119  RH  075%=      5-min Rain = 0
KMC5 240902Z 13007KT 16/12 A2985 RMK A01 T01640119  RH  075%=      5-min Rain = 0
KMC5 240903Z 13006KT 16/12 A2985 RMK A01 T01630119  RH  075%=      5-min Rain = 0
KMC5 240904Z 14006KT 16/12 A2986 RMK A01 T01620119  RH  075%=      5-min Rain = 0
KMC5 240905Z 15006KT 16/12 A2986 RMK A01 T01620119  RH  076%=      5-min Rain = 0
KMC5 240906Z 16005KT 16/12 A2986 RMK A01 T01610119  RH  076%=      5-min Rain = 0
KMC5 240907Z 16006KT 16/12 A2986 RMK A01 T01610119  RH  076%=      5-min Rain = 0
KMC5 240908Z 15006KT 16/12 A2986 RMK A01 T01610118  RH  076%=      5-min Rain = 0
KMC5 240909Z 14006KT 16/12 A2985 RMK A01 T01610119  RH  076%=      5-min Rain = 0
KMC5 240910Z 12005KT 16/12 A2985 RMK A01 T01610118  RH  076%=      5-min Rain = 0
KMC5 240911Z 13006KT 16/12 A2985 RMK A01 T01610119  RH  076%=      5-min Rain = 0
KMC5 240912Z 14005KT 16/12 A2985 RMK A01 T01600119  RH  077%=      5-min Rain = 0
KMC5 240913Z 14005KT 16/12 A2986 RMK A01 T01590119  RH  077%=      5-min Rain = 0
KMC5 240914Z 15006KT 16/12 A2986 RMK A01 T01590119  RH  077%=      5-min Rain = 0
KMC5 240915Z 14006KT 16/12 A2985 RMK A01 T01580118  RH  077%=      5-min Rain = 0
KMC5 240916Z 14005KT 16/12 A2986 RMK A01 T01590119  RH  077%=      5-min Rain = 0
KMC5 240917Z 14005KT 16/12 A2986 RMK A01 T01590119  RH  077%=      5-min Rain = 0
KMC5 240918Z 16004KT 16/12 A2986 RMK A01 T01580119  RH  077%=      5-min Rain = 0
KMC5 240919Z 14005KT 16/12 A2986 RMK A01 T01580119  RH  078%=      5-min Rain = 0
KMC5 240920Z 14006KT 16/12 A2985 RMK A01 T01590118  RH  077%=      5-min Rain = 0
KMC5 240921Z 16004KT 16/12 A2985 RMK A01 T01600119  RH  076%=      5-min Rain = 0
KMC5 240922Z 17004KT 16/12 A2985 RMK A01 T01600119  RH  076%=      5-min Rain = 0
KMC5 240923Z 17005KT 16/12 A2985 RMK A01 T01600119  RH  076%=      5-min Rain = 0
KMC5 240924Z 16005KT 16/12 A2985 RMK A01 T01600118  RH  076%=      5-min Rain = 0
KMC5 240925Z 17006KT 16/12 A2985 RMK A01 T01610117  RH  075%=      5-min Rain = 0
KMC5 240926Z 19004KT 16/12 A2985 RMK A01 T01620118  RH  075%=      5-min Rain = 0
KMC5 240927Z 19004KT 16/12 A2985 RMK A01 T01620119  RH  076%=      5-min Rain = 0
KMC5 240928Z 18004KT 16/12 A2985 RMK A01 T01610119  RH  076%=      5-min Rain = 0
KMC5 240929Z 18005KT 16/12 A2985 RMK A01 T01600119  RH  076%=      5-min Rain = 0
KMC5 240930Z 17005KT 16/12 A2985 RMK A01 T01600118  RH  076%=      5-min Rain = 0
KMC5 240931Z 18004KT 16/12 A2985 RMK A01 T01610119  RH  076%=      5-min Rain = 0
KMC5 240932Z 18005KT 16/12 A2986 RMK A01 T01600119  RH  077%=      5-min Rain = 0
KMC5 240933Z 18006KT 16/12 A2985 RMK A01 T01590119  RH  077%=      5-min Rain = 0
KMC5 240934Z 17005KT 16/12 A2985 RMK A01 T01590119  RH  077%=      5-min Rain = 0
KMC5 240935Z 17006KT 16/12 A2985 RMK A01 T01590117  RH  076%=      5-min Rain = 0
KMC5 240936Z 17005KT 16/12 A2985 RMK A01 T01600118  RH  076%=      5-min Rain = 0
KMC5 240937Z 17006KT 16/12 A2985 RMK A01 T01600118  RH  076%=      5-min Rain = 0
KMC5 240938Z 17005KT 16/12 A2985 RMK A01 T01600119  RH  077%=      5-min Rain = 0
KMC5 240939Z 17005KT 16/12 A2985 RMK A01 T01590119  RH  077%=      5-min Rain = 0
KMC5 240940Z 17006KT 16/12 A2985 RMK A01 T01590119  RH  077%=      5-min Rain = 0
KMC5 240941Z 18006KT 16/12 A2985 RMK A01 T01590119  RH  077%=      5-min Rain = 0
KMC5 240942Z 18006KT 16/12 A2985 RMK A01 T01590119  RH  077%=      5-min Rain = 0
KMC5 240943Z 17006KT 16/12 A2985 RMK A01 T01580119  RH  077%=      5-min Rain = 0
KMC5 240944Z 18005KT 16/12 A2985 RMK A01 T01580119  RH  077%=      5-min Rain = 0
KMC5 240945Z 18005KT 16/12 A2985 RMK A01 T01580119  RH  077%=      5-min Rain = 0
KMC5 240946Z 18005KT 16/12 A2985 RMK A01 T01580119  RH  078%=      5-min Rain = 0
KMC5 240947Z 18005KT 16/12 A2985 RMK A01 T01570119  RH  078%=      5-min Rain = 0
KMC5 240948Z 17005KT 16/12 A2985 RMK A01 T01570118  RH  078%=      5-min Rain = 0
KMC5 240949Z 17007KT 16/12 A2985 RMK A01 T01570118  RH  078%=      5-min Rain = 0
KMC5 240950Z 18007KT 16/12 A2985 RMK A01 T01570117  RH  077%=      5-min Rain = 0
KMC5 240951Z 17006KT 16/12 A2985 RMK A01 T01570118  RH  077%=      5-min Rain = 0
KMC5 240952Z 17006KT 16/12 A2985 RMK A01 T01570118  RH  078%=      5-min Rain = 0
KMC5 240953Z 18005KT 16/12 A2985 RMK A01 T01570118  RH  078%=      5-min Rain = 0
KMC5 240954Z 18007KT 16/12 A2985 RMK A01 T01570118  RH  078%=      5-min Rain = 0
KMC5 240955Z 18007KT 16/12 A2985 RMK A01 T01570117  RH  077%=      5-min Rain = 0
KMC5 240956Z 17006KT 16/12 A2985 RMK A01 T01570118  RH  078%=      5-min Rain = 0
KMC5 240957Z 18006KT 16/12 A2985 RMK A01 T01570118  RH  078%=      5-min Rain = 0
KMC5 240958Z 19007KT 16/12 A2985 RMK A01 T01570118  RH  078%=      5-min Rain = 0
KMC5 240959Z 19008KT 16/12 A2985 RMK A01 T01580119  RH  078%=      5-min Rain = 0
KMC5 241000Z 19007KT 16/12 A2985 RMK A01 T01580118  RH  077%=      5-min Rain = 0
KMC5 241001Z 18007KT 16/12 A2985 RMK A01 T01590117  RH  076%=      5-min Rain = 0
KMC5 241002Z 19006KT 16/12 A2985 RMK A01 T01590118  RH  077%=      5-min Rain = 0
KMC5 241003Z 19007KT 16/12 A2985 RMK A01 T01580119  RH  077%=      5-min Rain = 0
KMC5 241004Z 19007KT 16/12 A2985 RMK A01 T01570119  RH  078%=      5-min Rain = 0
KMC5 241005Z 17008KT 16/12 A2985 RMK A01 T01570119  RH  078%=      5-min Rain = 0
KMC5 241006Z 16007KT 16/12 A2986 RMK A01 T01570118  RH  078%=      5-min Rain = 0
KMC5 241007Z 16008KT 16/12 A2986 RMK A01 T01570118  RH  078%=      5-min Rain = 0
KMC5 241008Z 16008KT 16/12 A2986 RMK A01 T01570118  RH  078%=      5-min Rain = 0
KMC5 241009Z 17008KT 16/12 A2986 RMK A01 T01570118  RH  078%=      5-min Rain = 0
KMC5 241010Z 18008KT 16/12 A2985 RMK A01 T01570119  RH  078%=      5-min Rain = 0
KMC5 241011Z 17007KT 16/12 A2985 RMK A01 T01570118  RH  077%=      5-min Rain = 0
KMC5 241012Z 18007KT 16/12 A2985 RMK A01 T01580118  RH  077%=      5-min Rain = 0
KMC5 241013Z 17007KT 16/12 A2985 RMK A01 T01580118  RH  077%=      5-min Rain = 0
KMC5 241014Z 17008KT 16/12 A2985 RMK A01 T01590119  RH  077%=      5-min Rain = 0
KMC5 241015Z 17008KT 16/12 A2985 RMK A01 T01580118  RH  077%=      5-min Rain = 0
KMC5 241016Z 17008KT 16/12 A2985 RMK A01 T01570118  RH  077%=      5-min Rain = 0
KMC5 241017Z 18007KT 16/12 A2985 RMK A01 T01580118  RH  077%=      5-min Rain = 0
KMC5 241018Z 18006KT 16/12 A2985 RMK A01 T01580119  RH  077%=      5-min Rain = 0
KMC5 241019Z 18007KT 16/12 A2985 RMK A01 T01570118  RH  077%=      5-min Rain = 0
KMC5 241020Z 18008KT 16/12 A2985 RMK A01 T01580117  RH  077%=      5-min Rain = 0
KMC5 241021Z 18008KT 16/12 A2985 RMK A01 T01580118  RH  077%=      5-min Rain = 0
KMC5 241022Z 17009KT 16/12 A2985 RMK A01 T01590118  RH  077%=      5-min Rain = 0
KMC5 241023Z 17008KT 16/12 A2985 RMK A01 T01590118  RH  077%=      5-min Rain = 0
KMC5 241024Z 17007KT 16/12 A2985 RMK A01 T01580118  RH  077%=      5-min Rain = 0
KMC5 241025Z 17007KT 16/12 A2985 RMK A01 T01580118  RH  077%=      5-min Rain = 0
KMC5 241026Z 18006KT 16/12 A2985 RMK A01 T01570118  RH  077%=      5-min Rain = 0
KMC5 241027Z 18007KT 16/12 A2985 RMK A01 T01570118  RH  077%=      5-min Rain = 0
KMC5 241028Z 18007KT 16/12 A2985 RMK A01 T01560118  RH  078%=      5-min Rain = 0
KMC5 241029Z 17007KT 16/12 A2985 RMK A01 T01560117  RH  077%=      5-min Rain = 0
KMC5 241030Z 18007KT 16/12 A2985 RMK A01 T01560117  RH  077%=      5-min Rain = 0
KMC5 241031Z 19008KT 16/12 A2984 RMK A01 T01570117  RH  077%=      5-min Rain = 0
KMC5 241032Z 20007KT 16/12 A2984 RMK A01 T01570117  RH  077%=      5-min Rain = 0
KMC5 241033Z 20006KT 16/12 A2984 RMK A01 T01570118  RH  078%=      5-min Rain = 0
KMC5 241034Z 19008KT 16/12 A2984 RMK A01 T01560118  RH  078%=      5-min Rain = 0
KMC5 241035Z 19009KT 16/12 A2984 RMK A01 T01550117  RH  078%=      5-min Rain = 0
KMC5 241036Z 19009KT 16/12 A2984 RMK A01 T01550117  RH  078%=      5-min Rain = 0
KMC5 241037Z 19009KT 16/12 A2984 RMK A01 T01560117  RH  078%=      5-min Rain = 0
KMC5 241038Z 19009KT 16/12 A2984 RMK A01 T01560118  RH  078%=      5-min Rain = 0
KMC5 241039Z 19009KT 16/12 A2984 RMK A01 T01560118  RH  078%=      5-min Rain = 0
KMC5 241040Z 19009KT 16/12 A2984 RMK A01 T01550117  RH  078%=      5-min Rain = 0
KMC5 241041Z 19008KT 16/12 A2984 RMK A01 T01550118  RH  078%=      5-min Rain = 0
KMC5 241042Z 19007KT 16/12 A2984 RMK A01 T01550117  RH  078%=      5-min Rain = 0
KMC5 241043Z 20008KT 15/12 A2984 RMK A01 T01540118  RH  079%=      5-min Rain = 0
KMC5 241044Z 19007KT 15/12 A2984 RMK A01 T01540116  RH  078%=      5-min Rain = 0
KMC5 241045Z 19007KT 16/12 A2984 RMK A01 T01550117  RH  078%=      5-min Rain = 0
KMC5 241046Z 20007KT 16/12 A2984 RMK A01 T01550117  RH  078%=      5-min Rain = 0
KMC5 241047Z 20007KT 16/12 A2984 RMK A01 T01550117  RH  078%=      5-min Rain = 0
KMC5 241048Z 20007KT 15/12 A2984 RMK A01 T01540117  RH  079%=      5-min Rain = 0
KMC5 241049Z 21006KT 15/12 A2984 RMK A01 T01530117  RH  079%=      5-min Rain = 0
KMC5 241050Z 21006KT 15/12 A2984 RMK A01 T01520117  RH  079%=      5-min Rain = 0
KMC5 241051Z 21005KT 15/12 A2984 RMK A01 T01520116  RH  079%=      5-min Rain = 0
KMC5 241052Z 20007KT 15/12 A2984 RMK A01 T01520116  RH  079%=      5-min Rain = 0
KMC5 241053Z 20007KT 15/12 A2984 RMK A01 T01530116  RH  078%=      5-min Rain = 0
KMC5 241054Z 20007KT 15/12 A2984 RMK A01 T01540116  RH  078%=      5-min Rain = 0
KMC5 241055Z 20007KT 15/12 A2984 RMK A01 T01540116  RH  078%=      5-min Rain = 0
KMC5 241056Z 20007KT 16/12 A2984 RMK A01 T01550116  RH  077%=      5-min Rain = 0
KMC5 241057Z 20008KT 16/12 A2984 RMK A01 T01550116  RH  077%=      5-min Rain = 0
KMC5 241058Z 20007KT 16/12 A2983 RMK A01 T01550116  RH  077%=      5-min Rain = 0
KMC5 241059Z 19007KT 16/12 A2983 RMK A01 T01550116  RH  077%=      5-min Rain = 0
KMC5 241100Z 18007KT 16/12 A2983 RMK A01 T01550116  RH  077%=      5-min Rain = 0
KMC5 241101Z 19007KT 16/12 A2983 RMK A01 T01550116  RH  077%=      5-min Rain = 0
KMC5 241102Z 18007KT 16/12 A2983 RMK A01 T01560116  RH  077%=      5-min Rain = 0
KMC5 241103Z 18008KT 16/12 A2983 RMK A01 T01560116  RH  077%=      5-min Rain = 0
KMC5 241104Z 18008KT 16/12 A2983 RMK A01 T01560116  RH  077%=      5-min Rain = 0
KMC5 241105Z 19008KT 16/12 A2983 RMK A01 T01550116  RH  077%=      5-min Rain = 0
KMC5 241106Z 19008KT 16/12 A2983 RMK A01 T01550116  RH  077%=      5-min Rain = 0
KMC5 241107Z 18008KT 16/12 A2984 RMK A01 T01560116  RH  077%=      5-min Rain = 0
KMC5 241108Z 19008KT 16/12 A2984 RMK A01 T01560116  RH  077%=      5-min Rain = 0
KMC5 241109Z 19007KT 16/12 A2984 RMK A01 T01560116  RH  077%=      5-min Rain = 0
KMC5 241110Z 19009KT 16/12 A2984 RMK A01 T01560117  RH  077%=      5-min Rain = 0
KMC5 241111Z 18009KT 16/12 A2984 RMK A01 T01560116  RH  077%=      5-min Rain = 0
KMC5 241112Z 18010KT 16/12 A2984 RMK A01 T01560116  RH  077%=      5-min Rain = 0
KMC5 241113Z 18010KT 16/12 A2984 RMK A01 T01560116  RH  077%=      5-min Rain = 0
KMC5 241114Z 18010KT 16/12 A2984 RMK A01 T01570115  RH  076%=      5-min Rain = 0
KMC5 241115Z 19009KT 16/12 A2984 RMK A01 T01580116  RH  076%=      5-min Rain = 0
KMC5 241116Z 18010KT 16/12 A2984 RMK A01 T01580116  RH  076%=      5-min Rain = 0
KMC5 241117Z 18011KT 16/12 A2984 RMK A01 T01570115  RH  076%=      5-min Rain = 0
KMC5 241118Z 17012KT 16/12 A2984 RMK A01 T01580115  RH  076%=      5-min Rain = 0
KMC5 241119Z 18013KT 16/12 A2984 RMK A01 T01580116  RH  076%=      5-min Rain = 0
KMC5 241120Z 17013KT 16/12 A2984 RMK A01 T01590116  RH  075%=      5-min Rain = 0
KMC5 241121Z 18011KT 16/12 A2984 RMK A01 T01600116  RH  075%=      5-min Rain = 0
KMC5 241122Z 18011KT 16/12 A2984 RMK A01 T01590117  RH  076%=      5-min Rain = 0
KMC5 241123Z 17012KT 16/12 A2984 RMK A01 T01590117  RH  076%=      5-min Rain = 0
KMC5 241124Z 18010KT 16/12 A2984 RMK A01 T01580117  RH  076%=      5-min Rain = 0
KMC5 241125Z 18011KT 16/12 A2984 RMK A01 T01580117  RH  077%=      5-min Rain = 0
KMC5 241126Z 19011KT 16/12 A2984 RMK A01 T01570117  RH  077%=      5-min Rain = 0
KMC5 241127Z 19010KT 16/12 A2984 RMK A01 T01570118  RH  077%=      5-min Rain = 0
KMC5 241128Z 18011KT 16/12 A2984 RMK A01 T01570118  RH  077%=      5-min Rain = 0
KMC5 241129Z 18013KT 16/12 A2984 RMK A01 T01570117  RH  077%=      5-min Rain = 0
KMC5 241130Z 18013KT 16/12 A2984 RMK A01 T01580116  RH  076%=      5-min Rain = 0
KMC5 241131Z 17012KT 16/12 A2984 RMK A01 T01590117  RH  076%=      5-min Rain = 0
KMC5 241132Z 17012KT 16/12 A2984 RMK A01 T01590117  RH  076%=      5-min Rain = 0
KMC5 241133Z 18014KT 16/12 A2984 RMK A01 T01580116  RH  076%=      5-min Rain = 0
KMC5 241134Z 18015KT 16/12 A2984 RMK A01 T01590116  RH  075%=      5-min Rain = 0
KMC5 241135Z 18014KT 16/12 A2984 RMK A01 T01600116  RH  075%=      5-min Rain = 0
KMC5 241136Z 19014KT 16/12 A2984 RMK A01 T01610117  RH  075%=      5-min Rain = 0
KMC5 241137Z 19014KT 16/12 A2984 RMK A01 T01600117  RH  076%=      5-min Rain = 0
KMC5 241138Z 19014KT 16/12 A2984 RMK A01 T01600116  RH  075%=      5-min Rain = 0
KMC5 241139Z 19013KT 16/12 A2984 RMK A01 T01600117  RH  075%=      5-min Rain = 0
KMC5 241140Z 18014KT 16/12 A2984 RMK A01 T01590117  RH  076%=      5-min Rain = 0
KMC5 241141Z 18014G19KT 16/12 A2984 RMK A01 T01590116  RH  075%=      5-min Rain = 0
KMC5 241142Z 18014KT 16/12 A2984 RMK A01 T01590116  RH  075%=      5-min Rain = 0
KMC5 241143Z 18013KT 16/12 A2984 RMK A01 T01590116  RH  076%=      5-min Rain = 0
KMC5 241144Z 18015KT 16/12 A2984 RMK A01 T01590117  RH  076%=      5-min Rain = 0
KMC5 241145Z 18014KT 16/12 A2984 RMK A01 T01590116  RH  076%=      5-min Rain = 0
KMC5 241146Z 18014KT 16/12 A2984 RMK A01 T01590116  RH  076%=      5-min Rain = 0
KMC5 241147Z 19014KT 16/12 A2984 RMK A01 T01590116  RH  076%=      5-min Rain = 0
KMC5 241148Z 18014KT 16/12 A2984 RMK A01 T01590116  RH  076%=      5-min Rain = 0
KMC5 241149Z 18014G19KT 16/12 A2984 RMK A01 T01590116  RH  075%=      5-min Rain = 0
KMC5 241150Z 17013KT 16/12 A2984 RMK A01 T01590116  RH  075%=      5-min Rain = 0
KMC5 241151Z 18014KT 16/12 A2984 RMK A01 T01590116  RH  076%=      5-min Rain = 0
KMC5 241152Z 18013KT 16/12 A2984 RMK A01 T01590116  RH  075%=      5-min Rain = 0
KMC5 241153Z 18013KT 16/12 A2984 RMK A01 T01590116  RH  076%=      5-min Rain = 0
KMC5 241154Z 18014KT 16/12 A2984 RMK A01 T01590116  RH  076%=      5-min Rain = 0
KMC5 241155Z 18014KT 16/12 A2984 RMK A01 T01590116  RH  075%=      5-min Rain = 0
KMC5 241156Z 17013KT 16/12 A2984 RMK A01 T01590116  RH  076%=      5-min Rain = 0
KMC5 241157Z 17015KT 16/12 A2983 RMK A01 T01590116  RH  076%=      5-min Rain = 0
KMC5 241158Z 17014KT 16/12 A2983 RMK A01 T01590116  RH  075%=      5-min Rain = 0
KMC5 241159Z 17015KT 16/12 A2983 RMK A01 T01590116  RH  075%=      5-min Rain = 0
KMC5 241200Z 17013KT 16/12 A2984 RMK A01 T01590116  RH  075%=      5-min Rain = 0
KMC5 241201Z 17014KT 16/12 A2984 RMK A01 T01600116  RH  075%=      5-min Rain = 0
KMC5 241202Z 18013KT 16/12 A2984 RMK A01 T01590116  RH  075%=      5-min Rain = 0
KMC5 241203Z 17012KT 16/12 A2984 RMK A01 T01590116  RH  076%=      5-min Rain = 0
KMC5 241204Z 17012KT 16/12 A2984 RMK A01 T01590116  RH  076%=      5-min Rain = 0
KMC5 241205Z 18011KT 16/12 A2984 RMK A01 T01590116  RH  076%=      5-min Rain = 0
KMC5 241206Z 18012KT 16/12 A2984 RMK A01 T01590116  RH  076%=      5-min Rain = 0
KMC5 241207Z 18012KT 16/12 A2984 RMK A01 T01590116  RH  076%=      5-min Rain = 0
KMC5 241208Z 17013KT 16/12 A2984 RMK A01 T01590116  RH  076%=      5-min Rain = 0
KMC5 241209Z 17013KT 16/12 A2984 RMK A01 T01590116  RH  075%=      5-min Rain = 0
KMC5 241210Z 17012KT 16/12 A2984 RMK A01 T01590115  RH  075%=      5-min Rain = 0
KMC5 241211Z 18012KT 16/12 A2984 RMK A01 T01590116  RH  075%=      5-min Rain = 0
KMC5 241212Z 18010KT 16/12 A2984 RMK A01 T01600117  RH  076%=      5-min Rain = 0
KMC5 241213Z 18011KT 16/12 A2984 RMK A01 T01590117  RH  076%=      5-min Rain = 0
KMC5 241214Z 18011KT 16/12 A2984 RMK A01 T01580116  RH  076%=      5-min Rain = 0
KMC5 241215Z 18010KT 16/12 A2984 RMK A01 T01590117  RH  076%=      5-min Rain = 0
KMC5 241216Z 18011KT 16/12 A2984 RMK A01 T01580117  RH  077%=      5-min Rain = 0
KMC5 241217Z 19010KT 16/12 A2984 RMK A01 T01580117  RH  076%=      5-min Rain = 0
KMC5 241218Z 18011KT 16/12 A2983 RMK A01 T01580116  RH  076%=      5-min Rain = 0
KMC5 241219Z 18010KT 16/12 A2983 RMK A01 T01590116  RH  076%=      5-min Rain = 0
KMC5 241220Z 19011KT 16/12 A2984 RMK A01 T01590117  RH  076%=      5-min Rain = 0
KMC5 241221Z 19012KT 16/12 A2984 RMK A01 T01590117  RH  076%=      5-min Rain = 0
KMC5 241222Z 19011KT 16/12 A2984 RMK A01 T01590118  RH  076%=      5-min Rain = 0
KMC5 241223Z 18011KT 16/12 A2984 RMK A01 T01590117  RH  076%=      5-min Rain = 0
KMC5 241224Z 18010KT 16/12 A2984 RMK A01 T01590118  RH  077%=      5-min Rain = 0
KMC5 241225Z 19011KT 16/12 A2984 RMK A01 T01590118  RH  076%=      5-min Rain = 0
KMC5 241226Z 18011KT 16/12 A2984 RMK A01 T01600117  RH  076%=      5-min Rain = 0
KMC5 241227Z 18011KT 16/12 A2984 RMK A01 T01600117  RH  076%=      5-min Rain = 0
KMC5 241228Z 18010KT 16/12 A2984 RMK A01 T01610117  RH  075%=      5-min Rain = 0
KMC5 241229Z 18011KT 16/12 A2984 RMK A01 T01620118  RH  075%=      5-min Rain = 0
KMC5 241230Z 18011KT 16/12 A2984 RMK A01 T01620117  RH  075%=      5-min Rain = 0
KMC5 241231Z 19010KT 16/12 A2984 RMK A01 T01620118  RH  075%=      5-min Rain = 0
KMC5 241232Z 18013KT 16/12 A2984 RMK A01 T01630118  RH  075%=      5-min Rain = 0
KMC5 241233Z 19013KT 16/12 A2984 RMK A01 T01640117  RH  074%=      5-min Rain = 0
KMC5 241234Z 18013KT 17/12 A2984 RMK A01 T01650117  RH  073%=      5-min Rain = 0
KMC5 241235Z 18013KT 17/12 A2984 RMK A01 T01660116  RH  072%=      5-min Rain = 0
KMC5 241236Z 18012KT 17/12 A2984 RMK A01 T01670117  RH  072%=      5-min Rain = 0
KMC5 241237Z 19014KT 17/12 A2984 RMK A01 T01670117  RH  072%=      5-min Rain = 0
KMC5 241238Z 19013KT 17/12 A2985 RMK A01 T01670117  RH  072%=      5-min Rain = 0
KMC5 241239Z 19014KT 17/12 A2985 RMK A01 T01670116  RH  072%=      5-min Rain = 0
KMC5 241240Z 19015KT 17/12 A2984 RMK A01 T01670116  RH  072%=      5-min Rain = 0
KMC5 241241Z 19014KT 17/12 A2984 RMK A01 T01680117  RH  072%=      5-min Rain = 0
KMC5 241242Z 19015KT 17/12 A2985 RMK A01 T01690116  RH  071%=      5-min Rain = 0
KMC5 241243Z 19015KT 17/12 A2985 RMK A01 T01690117  RH  071%=      5-min Rain = 0
KMC5 241244Z 19017KT 17/12 A2985 RMK A01 T01680117  RH  072%=      5-min Rain = 0
KMC5 241245Z 19016KT 17/12 A2984 RMK A01 T01680116  RH  071%=      5-min Rain = 0
KMC5 241246Z 19016KT 17/12 A2984 RMK A01 T01680116  RH  071%=      5-min Rain = 0
KMC5 241247Z 19017KT 17/12 A2984 RMK A01 T01680116  RH  071%=      5-min Rain = 0
KMC5 241248Z 19015KT 17/12 A2984 RMK A01 T01680115  RH  071%=      5-min Rain = 0
KMC5 241249Z 19016KT 17/12 A2984 RMK A01 T01680116  RH  071%=      5-min Rain = 0
KMC5 241250Z 19018KT 17/12 A2984 RMK A01 T01680115  RH  071%=      5-min Rain = 0
KMC5 241251Z 19016KT 17/12 A2984 RMK A01 T01690115  RH  070%=      5-min Rain = 0
KMC5 241252Z 19017KT 17/12 A2984 RMK A01 T01700116  RH  070%=      5-min Rain = 0
KMC5 241253Z 19018KT 17/12 A2984 RMK A01 T01720115  RH  069%=      5-min Rain = 0
KMC5 241254Z 19016KT 17/12 A2984 RMK A01 T01740117  RH  069%=      5-min Rain = 0
KMC5 241255Z 19017KT 18/12 A2984 RMK A01 T01750117  RH  069%=      5-min Rain = 0
KMC5 241256Z 19017KT 18/12 A2984 RMK A01 T01760116  RH  068%=      5-min Rain = 0
KMC5 241257Z 19018KT 18/12 A2984 RMK A01 T01770116  RH  067%=      5-min Rain = 0
KMC5 241258Z 19016KT 18/12 A2984 RMK A01 T01790117  RH  067%=      5-min Rain = 0
KMC5 241259Z 19018KT 18/12 A2984 RMK A01 T01800117  RH  067%=      5-min Rain = 0
KMC5 241300Z 19020KT 18/12 A2984 RMK A01 T01810115  RH  065%=      5-min Rain = 0
KMC5 241301Z 18019KT 18/12 A2984 RMK A01 T01820115  RH  065%=      5-min Rain = 0
KMC5 241302Z 18019KT 18/12 A2984 RMK A01 T01830115  RH  064%=      5-min Rain = 0
KMC5 241303Z 18017KT 18/12 A2984 RMK A01 T01840117  RH  065%=      5-min Rain = 0
KMC5 241304Z 19016KT 18/12 A2984 RMK A01 T01840118  RH  065%=      5-min Rain = 0
KMC5 241305Z 18018KT 18/12 A2984 RMK A01 T01840117  RH  065%=      5-min Rain = 0
KMC5 241306Z 18018KT 18/12 A2984 RMK A01 T01840117  RH  065%=      5-min Rain = 0
KMC5 241307Z 18017KT 18/12 A2984 RMK A01 T01840118  RH  065%=      5-min Rain = 0
KMC5 241308Z 18017KT 18/12 A2984 RMK A01 T01840118  RH  065%=      5-min Rain = 0
KMC5 241309Z 18018KT 19/12 A2984 RMK A01 T01850119  RH  065%=      5-min Rain = 0
KMC5 241310Z 18019KT 19/12 A2984 RMK A01 T01850118  RH  065%=      5-min Rain = 0
KMC5 241311Z 18019KT 19/12 A2984 RMK A01 T01850117  RH  064%=      5-min Rain = 0
KMC5 241312Z 18019KT 19/12 A2984 RMK A01 T01850118  RH  065%=      5-min Rain = 0
KMC5 241313Z 18016KT 19/12 A2984 RMK A01 T01850118  RH  065%=      5-min Rain = 0
KMC5 241314Z 18015KT 19/12 A2984 RMK A01 T01850121  RH  066%=      5-min Rain = 0
KMC5 241315Z 18017KT 19/12 A2984 RMK A01 T01850118  RH  065%=      5-min Rain = 0
KMC5 241316Z 18018G23KT 19/12 A2984 RMK A01 T01850118  RH  065%=      5-min Rain = 0
KMC5 241317Z 17017G22KT 18/12 A2984 RMK A01 T01840118  RH  065%=      5-min Rain = 0
KMC5 241318Z 18017KT 19/12 A2984 RMK A01 T01850120  RH  066%=      5-min Rain = 0
KMC5 241319Z 17013KT 19/12 A2984 RMK A01 T01850120  RH  066%=      5-min Rain = 0
KMC5 241320Z 18015KT 19/12 A2984 RMK A01 T01870122  RH  066%=      5-min Rain = 0
KMC5 241321Z 18015KT 19/12 A2984 RMK A01 T01880120  RH  065%=      5-min Rain = 0
KMC5 241322Z 18017KT 19/12 A2984 RMK A01 T01890120  RH  064%=      5-min Rain = 0
KMC5 241323Z 18017KT 19/12 A2984 RMK A01 T01900120  RH  064%=      5-min Rain = 0
KMC5 241324Z 17016KT 19/12 A2984 RMK A01 T01900122  RH  064%=      5-min Rain = 0
KMC5 241325Z 18018KT 19/12 A2984 RMK A01 T01910121  RH  064%=      5-min Rain = 0
KMC5 241326Z 18016KT 19/12 A2984 RMK A01 T01910121  RH  064%=      5-min Rain = 0
KMC5 241327Z 18017KT 19/12 A2984 RMK A01 T01910122  RH  064%=      5-min Rain = 0
KMC5 241328Z 18016KT 19/12 A2984 RMK A01 T01920122  RH  064%=      5-min Rain = 0
KMC5 241329Z 17018KT 19/12 A2984 RMK A01 T01920120  RH  063%=      5-min Rain = 0
KMC5 241330Z 17015KT 19/12 A2984 RMK A01 T01910120  RH  063%=      5-min Rain = 0
KMC5 241331Z 18014KT 19/12 A2984 RMK A01 T01910123  RH  065%=      5-min Rain = 0
KMC5 241332Z 18016KT 19/12 A2984 RMK A01 T01910123  RH  065%=      5-min Rain = 0
KMC5 241333Z 18013KT 19/12 A2984 RMK A01 T01910123  RH  065%=      5-min Rain = 0
KMC5 241334Z 18016KT 19/12 A2984 RMK A01 T01910122  RH  064%=      5-min Rain = 0
KMC5 241335Z 18015KT 19/12 A2984 RMK A01 T01910122  RH  064%=      5-min Rain = 0
KMC5 241336Z 18019KT 19/12 A2984 RMK A01 T01910121  RH  064%=      5-min Rain = 0
KMC5 241337Z 18016KT 19/12 A2984 RMK A01 T01900121  RH  064%=      5-min Rain = 0
KMC5 241338Z 18016KT 19/12 A2984 RMK A01 T01900123  RH  065%=      5-min Rain = 0
KMC5 241339Z 18017KT 19/12 A2984 RMK A01 T01900121  RH  064%=      5-min Rain = 0
KMC5 241340Z 18018KT 19/12 A2984 RMK A01 T01900121  RH  064%=      5-min Rain = 0
KMC5 241341Z 18019KT 19/12 A2984 RMK A01 T01910120  RH  063%=      5-min Rain = 0
KMC5 241342Z 18018KT 19/12 A2984 RMK A01 T01920121  RH  063%=      5-min Rain = 0
KMC5 241343Z 18018KT 19/12 A2984 RMK A01 T01920122  RH  064%=      5-min Rain = 0
KMC5 241344Z 19019KT 19/12 A2984 RMK A01 T01920121  RH  063%=      5-min Rain = 0
KMC5 241345Z 19017KT 19/12 A2984 RMK A01 T01920124  RH  065%=      5-min Rain = 0
KMC5 241346Z 18018KT 19/12 A2984 RMK A01 T01920122  RH  064%=      5-min Rain = 0
KMC5 241347Z 17017KT 19/12 A2984 RMK A01 T01920122  RH  064%=      5-min Rain = 0
KMC5 241348Z 18016KT 19/13 A2984 RMK A01 T01930125  RH  065%=      5-min Rain = 0
KMC5 241349Z 17016KT 19/13 A2984 RMK A01 T01940127  RH  065%=      5-min Rain = 0
KMC5 241350Z 17017KT 20/13 A2984 RMK A01 T01950126  RH  064%=      5-min Rain = 0
KMC5 241351Z 18014KT 20/13 A2984 RMK A01 T01950127  RH  065%=      5-min Rain = 0
KMC5 241352Z 18018KT 20/13 A2984 RMK A01 T01950126  RH  064%=      5-min Rain = 0
KMC5 241353Z 18015KT 19/13 A2984 RMK A01 T01940127  RH  065%=      5-min Rain = 0
KMC5 241354Z 18016KT 19/13 A2984 RMK A01 T01940128  RH  065%=      5-min Rain = 0
KMC5 241355Z 18017KT 20/13 A2984 RMK A01 T01950128  RH  065%=      5-min Rain = 0
KMC5 241356Z 17018KT 20/13 A2984 RMK A01 T01950127  RH  065%=      5-min Rain = 0
KMC5 241357Z 18016KT 20/13 A2984 RMK A01 T01950128  RH  065%=      5-min Rain = 0
KMC5 241358Z 17014KT 20/13 A2984 RMK A01 T01950131  RH  066%=      5-min Rain = 0
KMC5 241359Z 17015G20KT 20/13 A2984 RMK A01 T01970130  RH  065%=      5-min Rain = 0
KMC5 241400Z 17014KT 20/13 A2984 RMK A01 T01990132  RH  065%=      5-min Rain = 0
KMC5 241401Z 18017KT 20/13 A2984 RMK A01 T02000130  RH  064%=      5-min Rain = 0
KMC5 241402Z 18015KT 20/13 A2984 RMK A01 T02000131  RH  065%=      5-min Rain = 0
KMC5 241403Z 17015KT 20/13 A2984 RMK A01 T02010131  RH  064%=      5-min Rain = 0
KMC5 241404Z 16017KT 20/13 A2984 RMK A01 T02020132  RH  064%=      5-min Rain = 0
KMC5 241405Z 17016KT 20/13 A2984 RMK A01 T02020128  RH  062%=      5-min Rain = 0
KMC5 241406Z 16018KT 20/13 A2984 RMK A01 T02030130  RH  063%=      5-min Rain = 0
KMC5 241407Z 16016KT 20/13 A2984 RMK A01 T02030129  RH  063%=      5-min Rain = 0
KMC5 241408Z 17015KT 20/13 A2984 RMK A01 T02030130  RH  063%=      5-min Rain = 0
KMC5 241409Z 16015KT 20/13 A2984 RMK A01 T02030132  RH  064%=      5-min Rain = 0
KMC5 241410Z 16017KT 20/13 A2984 RMK A01 T02030130  RH  063%=      5-min Rain = 0
KMC5 241411Z 17018KT 20/13 A2984 RMK A01 T02030130  RH  063%=      5-min Rain = 0
KMC5 241412Z 17016KT 20/13 A2984 RMK A01 T02030130  RH  063%=      5-min Rain = 0
KMC5 241413Z 16020KT 20/13 A2984 RMK A01 T02040129  RH  062%=      5-min Rain = 0
KMC5 241414Z 16020KT 20/13 A2984 RMK A01 T02040128  RH  062%=      5-min Rain = 0
KMC5 241415Z 17018KT 20/13 A2984 RMK A01 T02040128  RH  061%=      5-min Rain = 0
KMC5 241416Z 17019KT 20/13 A2984 RMK A01 T02040129  RH  062%=      5-min Rain = 0
KMC5 241417Z 17017KT 20/13 A2984 RMK A01 T02040128  RH  062%=      5-min Rain = 0
KMC5 241418Z 17014KT 20/13 A2984 RMK A01 T02040131  RH  063%=      5-min Rain = 0
KMC5 241419Z 16017KT 21/13 A2984 RMK A01 T02060132  RH  063%=      5-min Rain = 0
KMC5 241420Z 17019KT 21/13 A2984 RMK A01 T02070130  RH  062%=      5-min Rain = 0
KMC5 241421Z 17020KT 21/13 A2984 RMK A01 T02070128  RH  061%=      5-min Rain = 0
KMC5 241422Z 16017G23KT 21/13 A2984 RMK A01 T02060128  RH  061%=      5-min Rain = 0
KMC5 241423Z 17016KT 21/13 A2984 RMK A01 T02060130  RH  062%=      5-min Rain = 0
KMC5 241424Z 17018KT 21/13 A2984 RMK A01 T02060129  RH  061%=      5-min Rain = 0
KMC5 241425Z 18013KT 21/13 A2984 RMK A01 T02070130  RH  061%=      5-min Rain = 0
KMC5 241426Z 18015KT 21/13 A2984 RMK A01 T02090133  RH  062%=      5-min Rain = 0
KMC5 241427Z 17013KT 21/13 A2984 RMK A01 T02100134  RH  062%=      5-min Rain = 0
KMC5 241428Z 16014KT 21/13 A2984 RMK A01 T02110134  RH  061%=      5-min Rain = 0
KMC5 241429Z 17016KT 21/13 A2984 RMK A01 T02110133  RH  061%=      5-min Rain = 0
KMC5 241430Z 18014KT 21/13 A2984 RMK A01 T02120134  RH  061%=      5-min Rain = 0
KMC5 241431Z 17014KT 21/13 A2984 RMK A01 T02120134  RH  061%=      5-min Rain = 0
KMC5 241432Z 17018KT 21/13 A2984 RMK A01 T02130131  RH  060%=      5-min Rain = 0
KMC5 241433Z 18016KT 21/13 A2984 RMK A01 T02130130  RH  059%=      5-min Rain = 0
KMC5 241434Z 18016KT 21/13 A2984 RMK A01 T02130130  RH  059%=      5-min Rain = 0
KMC5 241435Z 18014KT 21/13 A2984 RMK A01 T02140127  RH  058%=      5-min Rain = 0
KMC5 241436Z 17016KT 21/13 A2984 RMK A01 T02140132  RH  059%=      5-min Rain = 0
KMC5 241437Z 17015KT 22/13 A2984 RMK A01 T02150130  RH  058%=      5-min Rain = 0
KMC5 241438Z 18016KT 22/13 A2984 RMK A01 T02160131  RH  058%=      5-min Rain = 0
KMC5 241439Z 17018KT 22/13 A2984 RMK A01 T02170130  RH  058%=      5-min Rain = 0
KMC5 241440Z 17018KT 22/13 A2984 RMK A01 T02170130  RH  058%=      5-min Rain = 0
KMC5 241441Z 18018G23KT 22/13 A2984 RMK A01 T02160128  RH  057%=      5-min Rain = 0
KMC5 241442Z 17018KT 22/13 A2984 RMK A01 T02150129  RH  058%=      5-min Rain = 0
KMC5 241443Z 17017KT 22/13 A2984 RMK A01 T02150129  RH  058%=      5-min Rain = 0
KMC5 241444Z 17015G20KT 22/13 A2984 RMK A01 T02150130  RH  058%=      5-min Rain = 0
KMC5 241445Z 19016KT 22/13 A2984 RMK A01 T02170131  RH  058%=      5-min Rain = 0
KMC5 241446Z 19018KT 22/13 A2984 RMK A01 T02160131  RH  058%=      5-min Rain = 0
KMC5 241447Z 18015KT 22/13 A2984 RMK A01 T02160133  RH  059%=      5-min Rain = 0
KMC5 241448Z 19017KT 22/13 A2984 RMK A01 T02170132  RH  058%=      5-min Rain = 0
KMC5 241449Z 18015KT 22/13 A2984 RMK A01 T02180133  RH  058%=      5-min Rain = 0
KMC5 241450Z 17017KT 22/14 A2984 RMK A01 T02190135  RH  059%=      5-min Rain = 0
KMC5 241451Z 18017KT 22/13 A2984 RMK A01 T02200132  RH  057%=      5-min Rain = 0
KMC5 241452Z 18015G20KT 22/13 A2984 RMK A01 T02200133  RH  058%=      5-min Rain = 0
KMC5 241453Z 18015KT 22/13 A2984 RMK A01 T02210134  RH  058%=      5-min Rain = 0
KMC5 241454Z 17017KT 22/13 A2984 RMK A01 T02220134  RH  058%=      5-min Rain = 0
KMC5 241455Z 16021KT 22/13 A2983 RMK A01 T02220130  RH  056%=      5-min Rain = 0
KMC5 241456Z 17019KT 22/13 A2984 RMK A01 T02190130  RH  057%=      5-min Rain = 0
KMC5 241457Z 17018KT 22/13 A2984 RMK A01 T02180131  RH  058%=      5-min Rain = 0
KMC5 241458Z 17017KT 22/13 A2984 RMK A01 T02190131  RH  058%=      5-min Rain = 0
KMC5 241459Z 18018G23KT 22/13 A2984 RMK A01 T02190131  RH  057%=      5-min Rain = 0
KMC5 241500Z 19018KT 22/13 A2984 RMK A01 T02190132  RH  058%=      5-min Rain = 0
KMC5 241501Z 17017G22KT 22/13 A2984 RMK A01 T02190134  RH  058%=      5-min Rain = 0
KMC5 241502Z 17022KT 22/13 A2984 RMK A01 T02200132  RH  057%=      5-min Rain = 0
KMC5 241503Z 18017KT 22/13 A2984 RMK A01 T02200130  RH  057%=      5-min Rain = 0
KMC5 241504Z 17018KT 22/13 A2984 RMK A01 T02190132  RH  058%=      5-min Rain = 0
KMC5 241505Z 17019KT 22/13 A2984 RMK A01 T02190133  RH  058%=      5-min Rain = 0
KMC5 241506Z 18018KT 22/13 A2984 RMK A01 T02200134  RH  058%=      5-min Rain = 0
KMC5 241507Z 18019KT 22/13 A2984 RMK A01 T02210134  RH  058%=      5-min Rain = 0
KMC5 241508Z 18019KT 22/13 A2984 RMK A01 T02210133  RH  057%=      5-min Rain = 0
KMC5 241509Z 17018KT 22/13 A2984 RMK A01 T02210134  RH  058%=      5-min Rain = 0
KMC5 241510Z 16018KT 22/13 A2984 RMK A01 T02210133  RH  057%=      5-min Rain = 0
KMC5 241511Z 17021KT 22/13 A2984 RMK A01 T02210134  RH  058%=      5-min Rain = 0
KMC5 241512Z 17019KT 22/13 A2984 RMK A01 T02210132  RH  057%=      5-min Rain = 0
KMC5 241513Z 17019KT 22/13 A2985 RMK A01 T02200132  RH  057%=      5-min Rain = 0
KMC5 241514Z 18018KT 22/13 A2985 RMK A01 T02200133  RH  058%=      5-min Rain = 0
KMC5 241515Z 18018KT 22/13 A2985 RMK A01 T02200133  RH  058%=      5-min Rain = 0
KMC5 241516Z 17020KT 22/13 A2985 RMK A01 T02200133  RH  058%=      5-min Rain = 0
KMC5 241517Z 17016G22KT 22/14 A2985 RMK A01 T02200135  RH  058%=      5-min Rain = 0
KMC5 241518Z 18018KT 22/14 A2985 RMK A01 T02220135  RH  058%=      5-min Rain = 0
KMC5 241519Z 18018KT 22/13 A2985 RMK A01 T02220134  RH  057%=      5-min Rain = 0
KMC5 241520Z 17017KT 22/13 A2985 RMK A01 T02220134  RH  057%=      5-min Rain = 0
KMC5 241521Z 18016KT 22/14 A2985 RMK A01 T02220138  RH  059%=      5-min Rain = 0
KMC5 241522Z 18015KT 22/14 A2985 RMK A01 T02240137  RH  058%=      5-min Rain = 0
KMC5 241523Z 19018KT 22/14 A2985 RMK A01 T02240137  RH  058%=      5-min Rain = 0
KMC5 241524Z 19018KT 22/14 A2985 RMK A01 T02240136  RH  057%=      5-min Rain = 0
KMC5 241525Z 18020KT 22/13 A2985 RMK A01 T02230133  RH  057%=      5-min Rain = 0
KMC5 241526Z 18019KT 22/13 A2985 RMK A01 T02210133  RH  058%=      5-min Rain = 0
KMC5 241527Z 19019KT 22/14 A2985 RMK A01 T02220137  RH  059%=      5-min Rain = 0
KMC5 241528Z 19019KT 22/14 A2985 RMK A01 T02230136  RH  058%=      5-min Rain = 0
KMC5 241529Z 20018KT 22/14 A2985 RMK A01 T02220137  RH  058%=      5-min Rain = 0
KMC5 241530Z 20017KT 22/14 A2985 RMK A01 T02230136  RH  058%=      5-min Rain = 0
KMC5 241531Z 20015KT 22/14 A2985 RMK A01 T02230138  RH  059%=      5-min Rain = 0
KMC5 241532Z 19012KT 22/14 A2985 RMK A01 T02240140  RH  059%=      5-min Rain = 0
KMC5 241533Z 18017KT 23/14 A2985 RMK A01 T02260139  RH  058%=      5-min Rain = 0
KMC5 241534Z 19019KT 23/14 A2985 RMK A01 T02260136  RH  057%=      5-min Rain = 0
KMC5 241535Z 19018KT 22/13 A2985 RMK A01 T02230133  RH  057%=      5-min Rain = 0
KMC5 241536Z 19017KT 22/14 A2985 RMK A01 T02210138  RH  059%=      5-min Rain = 0
KMC5 241537Z 18015KT 22/14 A2985 RMK A01 T02240137  RH  058%=      5-min Rain = 0
KMC5 241538Z 17016KT 22/14 A2985 RMK A01 T02240137  RH  058%=      5-min Rain = 0
KMC5 241539Z 18016KT 23/14 A2985 RMK A01 T02250140  RH  059%=      5-min Rain = 0
KMC5 241540Z 18016KT 23/14 A2985 RMK A01 T02270136  RH  056%=      5-min Rain = 0
KMC5 241541Z 18015G21KT 23/14 A2985 RMK A01 T02270141  RH  058%=      5-min Rain = 0
KMC5 241542Z 17018KT 23/14 A2984 RMK A01 T02280139  RH  057%=      5-min Rain = 0
KMC5 241543Z 17020KT 23/14 A2984 RMK A01 T02280139  RH  057%=      5-min Rain = 0
KMC5 241544Z 18018KT 23/14 A2984 RMK A01 T02290139  RH  057%=      5-min Rain = 0
KMC5 241545Z 17017KT 23/14 A2985 RMK A01 T02280136  RH  056%=      5-min Rain = 0
KMC5 241546Z 17016KT 23/14 A2984 RMK A01 T02260137  RH  057%=      5-min Rain = 0
KMC5 241547Z 17017KT 23/14 A2984 RMK A01 T02260138  RH  057%=      5-min Rain = 0
KMC5 241548Z 19015KT 23/14 A2984 RMK A01 T02290143  RH  058%=      5-min Rain = 0
KMC5 241549Z 17017G22KT 23/14 A2984 RMK A01 T02320143  RH  057%=      5-min Rain = 0
KMC5 241550Z 16017KT 23/14 A2984 RMK A01 T02320139  RH  056%=      5-min Rain = 0
KMC5 241551Z 17017G24KT 23/14 A2984 RMK A01 T02310142  RH  057%=      5-min Rain = 0
KMC5 241552Z 17019KT 23/14 A2984 RMK A01 T02320140  RH  056%=      5-min Rain = 0
KMC5 241553Z 18019KT 23/14 A2984 RMK A01 T02310140  RH  056%=      5-min Rain = 0
KMC5 241554Z 18018KT 23/14 A2984 RMK A01 T02300139  RH  056%=      5-min Rain = 0
KMC5 241555Z 18018KT 23/14 A2984 RMK A01 T02290138  RH  056%=      5-min Rain = 0
KMC5 241556Z 18017KT 23/14 A2984 RMK A01 T02280140  RH  058%=      5-min Rain = 0
KMC5 241557Z 18017KT 23/14 A2984 RMK A01 T02270139  RH  057%=      5-min Rain = 0
KMC5 241558Z 17018KT 23/14 A2984 RMK A01 T02270139  RH  058%=      5-min Rain = 0
KMC5 241559Z 18019KT 23/14 A2984 RMK A01 T02280138  RH  057%=      5-min Rain = 0
KMC5 241600Z 18015KT 23/14 A2984 RMK A01 T02280141  RH  058%=      5-min Rain = 0
KMC5 241601Z 18020KT 23/14 A2984 RMK A01 T02300139  RH  056%=      5-min Rain = 0
KMC5 241602Z 19018KT 23/14 A2984 RMK A01 T02280137  RH  056%=      5-min Rain = 0
KMC5 241603Z 17018KT 23/14 A2984 RMK A01 T02270141  RH  058%=      5-min Rain = 0
KMC5 241604Z 18019KT 23/14 A2984 RMK A01 T02290140  RH  057%=      5-min Rain = 0
KMC5 241605Z 18016KT 23/15 A2984 RMK A01 T02330146  RH  058%=      5-min Rain = 0
KMC5 241606Z 18020KT 24/14 A2984 RMK A01 T02350141  RH  055%=      5-min Rain = 0
KMC5 241607Z 18021KT 23/14 A2984 RMK A01 T02330140  RH  056%=      5-min Rain = 0
KMC5 241608Z 18019G24KT 23/14 A2984 RMK A01 T02320140  RH  056%=      5-min Rain = 0
KMC5 241609Z 19016KT 23/14 A2984 RMK A01 T02330143  RH  057%=      5-min Rain = 0
KMC5 241610Z 18018KT 23/14 A2984 RMK A01 T02340142  RH  056%=      5-min Rain = 0
KMC5 241611Z 19015KT 24/15 A2984 RMK A01 T02350145  RH  057%=      5-min Rain = 0
KMC5 241612Z 20015KT 24/15 A2984 RMK A01 T02380148  RH  057%=      5-min Rain = 0
KMC5 241613Z 20017KT 24/14 A2984 RMK A01 T02380143  RH  055%=      5-min Rain = 0
KMC5 241614Z 19016KT 24/15 A2984 RMK A01 T02370146  RH  057%=      5-min Rain = 0
KMC5 241615Z 18017KT 24/14 A2984 RMK A01 T02370143  RH  055%=      5-min Rain = 0
KMC5 241616Z 18015KT 24/14 A2984 RMK A01 T02360140  RH  055%=      5-min Rain = 0
KMC5 241617Z 18014G19KT 24/15 A2984 RMK A01 T02350146  RH  057%=      5-min Rain = 0
KMC5 241618Z 18014KT 24/15 A2984 RMK A01 T02390147  RH  056%=      5-min Rain = 0
KMC5 241619Z 19015G20KT 24/15 A2984 RMK A01 T02430151  RH  057%=      5-min Rain = 0
KMC5 241620Z 17017KT 24/14 A2984 RMK A01 T02430143  RH  054%=      5-min Rain = 0
KMC5 241621Z 16018G23KT 24/14 A2984 RMK A01 T02400144  RH  055%=      5-min Rain = 0
KMC5 241622Z 17016G21KT 24/15 A2984 RMK A01 T02400145  RH  055%=      5-min Rain = 0
KMC5 241623Z 18015KT 24/14 A2984 RMK A01 T02410144  RH  055%=      5-min Rain = 0
KMC5 241624Z 18018KT 24/14 A2984 RMK A01 T02410143  RH  054%=      5-min Rain = 0
KMC5 241625Z 19015KT 24/15 A2984 RMK A01 T02390145  RH  056%=      5-min Rain = 0
KMC5 241626Z 19015KT 24/15 A2984 RMK A01 T02410146  RH  055%=      5-min Rain = 0
KMC5 241627Z 19015KT 24/14 A2984 RMK A01 T02420143  RH  054%=      5-min Rain = 0
KMC5 241628Z 19013KT 24/14 A2984 RMK A01 T02390142  RH  055%=      5-min Rain = 0
KMC5 241629Z 18016KT 24/15 A2984 RMK A01 T02390147  RH  056%=      5-min Rain = 0
KMC5 241630Z 20016KT 24/15 A2984 RMK A01 T02430148  RH  055%=      5-min Rain = 0
KMC5 241631Z 19014KT 24/15 A2984 RMK A01 T02440148  RH  055%=      5-min Rain = 0
KMC5 241632Z 19013KT 24/15 A2984 RMK A01 T02440148  RH  055%=      5-min Rain = 0
KMC5 241633Z 18015KT 25/15 A2984 RMK A01 T02470151  RH  055%=      5-min Rain = 0
KMC5 241634Z 19012KT 25/15 A2984 RMK A01 T02480149  RH  054%=      5-min Rain = 0
KMC5 241635Z 17013KT 25/15 A2984 RMK A01 T02480149  RH  054%=      5-min Rain = 0
KMC5 241636Z 18013KT 25/15 A2984 RMK A01 T02500153  RH  055%=      5-min Rain = 0
KMC5 241637Z 18011KT 25/15 A2984 RMK A01 T02520152  RH  054%=      5-min Rain = 0
KMC5 241638Z 16015KT 25/15 A2984 RMK A01 T02520150  RH  053%=      5-min Rain = 0
KMC5 241639Z 18013KT 25/15 A2984 RMK A01 T02510150  RH  053%=      5-min Rain = 0
KMC5 241640Z 17014KT 25/15 A2984 RMK A01 T02500150  RH  054%=      5-min Rain = 0
KMC5 241641Z 17015KT 25/15 A2984 RMK A01 T02500147  RH  053%=      5-min Rain = 0
KMC5 241642Z 16014KT 25/15 A2984 RMK A01 T02470145  RH  053%=      5-min Rain = 0
KMC5 241643Z 18011KT 25/15 A2984 RMK A01 T02460148  RH  054%=      5-min Rain = 0
KMC5 241644Z 18013G18KT 25/15 A2984 RMK A01 T02480149  RH  054%=      5-min Rain = 0
KMC5 241645Z 17017KT 25/15 A2984 RMK A01 T02490148  RH  053%=      5-min Rain = 0
KMC5 241646Z 17015KT 25/15 A2984 RMK A01 T02480146  RH  053%=      5-min Rain = 0
KMC5 241647Z 18015KT 25/15 A2984 RMK A01 T02470145  RH  053%=      5-min Rain = 0
KMC5 241648Z 17017KT 25/15 A2984 RMK A01 T02460146  RH  053%=      5-min Rain = 0
KMC5 241649Z 17016KT 25/15 A2984 RMK A01 T02460147  RH  054%=      5-min Rain = 0
KMC5 241650Z 18014KT 25/15 A2984 RMK A01 T02490150  RH  054%=      5-min Rain = 0
KMC5 241651Z 17013KT 25/15 A2984 RMK A01 T02500148  RH  053%=      5-min Rain = 0
KMC5 241652Z 16012KT 25/15 A2985 RMK A01 T02500150  RH  054%=      5-min Rain = 0
KMC5 241653Z 16012KT 25/15 A2984 RMK A01 T02510149  RH  053%=      5-min Rain = 0
KMC5 241654Z 16015KT 25/15 A2984 RMK A01 T02520147  RH  052%=      5-min Rain = 0
KMC5 241655Z 17013KT 25/15 A2984 RMK A01 T02520152  RH  054%=      5-min Rain = 0
KMC5 241656Z 16015KT 25/15 A2984 RMK A01 T02530148  RH  052%=      5-min Rain = 0
KMC5 241657Z 18011KT 25/15 A2984 RMK A01 T02530151  RH  053%=      5-min Rain = 0
KMC5 241658Z 18015KT 25/15 A2984 RMK A01 T02530148  RH  052%=      5-min Rain = 0
KMC5 241659Z 17011KT 25/15 A2984 RMK A01 T02510145  RH  052%=      5-min Rain = 0
KMC5 241700Z 17014G21KT 25/15 A2984 RMK A01 T02510153  RH  054%=      5-min Rain = 0
KMC5 241701Z 16018KT 26/15 A2984 RMK A01 T02560149  RH  052%=      5-min Rain = 0
KMC5 241702Z 18013KT 26/15 A2984 RMK A01 T02560148  RH  051%=      5-min Rain = 0
KMC5 241703Z 17013KT 26/15 A2984 RMK A01 T02560150  RH  052%=      5-min Rain = 0
KMC5 241704Z 17012KT 26/15 A2984 RMK A01 T02560150  RH  052%=      5-min Rain = 0
KMC5 241705Z 18013KT 26/15 A2984 RMK A01 T02570152  RH  052%=      5-min Rain = 0
KMC5 241706Z 18015KT 26/15 A2984 RMK A01 T02590152  RH  052%=      5-min Rain = 0
KMC5 241707Z 17013KT 26/16 A2984 RMK A01 T02640157  RH  052%=      5-min Rain = 0
KMC5 241708Z 18016KT 27/15 A2984 RMK A01 T02660150  RH  049%=      5-min Rain = 0
KMC5 241709Z 18014KT 26/14 A2984 RMK A01 T02610144  RH  048%=      5-min Rain = 0
KMC5 241710Z 18014KT 26/15 A2984 RMK A01 T02580146  RH  050%=      5-min Rain = 0
KMC5 241711Z 18014KT 26/15 A2984 RMK A01 T02570145  RH  050%=      5-min Rain = 0
KMC5 241712Z 17014KT 26/14 A2984 RMK A01 T02570144  RH  050%=      5-min Rain = 0
KMC5 241713Z 19014KT 26/15 A2984 RMK A01 T02570150  RH  052%=      5-min Rain = 0
KMC5 241714Z 20015KT 26/15 A2984 RMK A01 T02590150  RH  051%=      5-min Rain = 0
KMC5 241715Z 20015KT 26/15 A2984 RMK A01 T02600151  RH  051%=      5-min Rain = 0
KMC5 241716Z 20013G18KT 26/16 A2984 RMK A01 T02640159  RH  052%=      5-min Rain = 0
KMC5 241717Z 22014KT 27/15 A2984 RMK A01 T02660147  RH  048%=      5-min Rain = 0
KMC5 241718Z 22014KT 26/15 A2984 RMK A01 T02630147  RH  049%=      5-min Rain = 0
KMC5 241719Z 21014G19KT 26/14 A2984 RMK A01 T02600144  RH  049%=      5-min Rain = 0
KMC5 241720Z 20015KT 26/15 A2984 RMK A01 T02580146  RH  050%=      5-min Rain = 0
KMC5 241721Z 18014KT 26/14 A2984 RMK A01 T02580142  RH  049%=      5-min Rain = 0
KMC5 241722Z 18015KT 26/15 A2984 RMK A01 T02580146  RH  050%=      5-min Rain = 0
KMC5 241723Z 19014KT 26/15 A2984 RMK A01 T02590145  RH  049%=      5-min Rain = 0
KMC5 241724Z 18011KT 26/15 A2984 RMK A01 T02600148  RH  050%=      5-min Rain = 0
KMC5 241725Z 18013KT 26/15 A2984 RMK A01 T02610146  RH  049%=      5-min Rain = 0
KMC5 241726Z 17010KT 26/15 A2984 RMK A01 T02610146  RH  049%=      5-min Rain = 0
KMC5 241727Z 17015KT 26/15 A2984 RMK A01 T02610147  RH  049%=      5-min Rain = 0
KMC5 241728Z 17016KT 26/15 A2984 RMK A01 T02610148  RH  050%=      5-min Rain = 0
KMC5 241729Z 17014KT 26/15 A2984 RMK A01 T02630150  RH  050%=      5-min Rain = 0
KMC5 241730Z 17015KT 26/15 A2984 RMK A01 T02640148  RH  049%=      5-min Rain = 0
KMC5 241731Z 19017KT 26/15 A2984 RMK A01 T02640150  RH  050%=      5-min Rain = 0
KMC5 241732Z 19013KT 27/15 A2984 RMK A01 T02660154  RH  050%=      5-min Rain = 0
KMC5 241733Z 19011KT 27/15 A2984 RMK A01 T02670148  RH  048%=      5-min Rain = 0
KMC5 241734Z 21009KT 26/15 A2984 RMK A01 T02640149  RH  049%=      5-min Rain = 0
KMC5 241735Z 20010KT 26/15 A2984 RMK A01 T02630149  RH  049%=      5-min Rain = 0
KMC5 241736Z 17009KT 26/15 A2984 RMK A01 T02640153  RH  051%=      5-min Rain = 0
KMC5 241737Z 18009KT 27/15 A2984 RMK A01 T02650149  RH  049%=      5-min Rain = 0
KMC5 241738Z 17011KT 27/15 A2984 RMK A01 T02650154  RH  050%=      5-min Rain = 0
KMC5 241739Z 17015KT 27/15 A2984 RMK A01 T02680149  RH  048%=      5-min Rain = 0
KMC5 241740Z 18015KT 27/15 A2984 RMK A01 T02680150  RH  048%=      5-min Rain = 0
KMC5 241741Z 18015KT 27/15 A2984 RMK A01 T02680148  RH  048%=      5-min Rain = 0
KMC5 241742Z 19012KT 27/15 A2984 RMK A01 T02670148  RH  048%=      5-min Rain = 0
KMC5 241743Z 18013KT 27/15 A2984 RMK A01 T02660149  RH  048%=      5-min Rain = 0
KMC5 241744Z 19013KT 27/15 A2984 RMK A01 T02650147  RH  048%=      5-min Rain = 0
KMC5 241745Z 19013KT 26/15 A2984 RMK A01 T02630145  RH  048%=      5-min Rain = 0
KMC5 241746Z 18014KT 26/15 A2984 RMK A01 T02640151  RH  050%=      5-min Rain = 0
KMC5 241747Z 17013KT 27/15 A2984 RMK A01 T02660150  RH  049%=      5-min Rain = 0
KMC5 241748Z 18012KT 27/15 A2984 RMK A01 T02670150  RH  049%=      5-min Rain = 0
KMC5 241749Z 19010KT 27/15 A2984 RMK A01 T02680146  RH  047%=      5-min Rain = 0
KMC5 241750Z 16011KT 27/15 A2984 RMK A01 T02660150  RH  049%=      5-min Rain = 0
KMC5 241751Z 16014G19KT 27/14 A2983 RMK A01 T02660144  RH  047%=      5-min Rain = 0
KMC5 241752Z 16018KT 27/15 A2983 RMK A01 T02650147  RH  048%=      5-min Rain = 0
KMC5 241753Z 15015KT 27/15 A2983 RMK A01 T02660145  RH  047%=      5-min Rain = 0
KMC5 241754Z 17015KT 27/15 A2984 RMK A01 T02660148  RH  048%=      5-min Rain = 0
KMC5 241755Z 18012KT 27/15 A2984 RMK A01 T02670146  RH  047%=      5-min Rain = 0
KMC5 241756Z 17012G18KT 27/15 A2984 RMK A01 T02660152  RH  049%=      5-min Rain = 0
KMC5 241757Z 18014KT 27/15 A2984 RMK A01 T02700154  RH  049%=      5-min Rain = 0
KMC5 241758Z 17012KT 27/16 A2984 RMK A01 T02720156  RH  049%=      5-min Rain = 0
KMC5 241759Z 18012KT 27/15 A2984 RMK A01 T02740151  RH  047%=      5-min Rain = 0
KMC5 241800Z 16013G18KT 27/15 A2984 RMK A01 T02710152  RH  048%=      5-min Rain = 0
KMC5 241801Z 16015KT 27/15 A2984 RMK A01 T02690147  RH  047%=      5-min Rain = 0
KMC5 241802Z 15012KT 27/14 A2984 RMK A01 T02660144  RH  047%=      5-min Rain = 0
KMC5 241803Z 17009KT 26/15 A2984 RMK A01 T02640146  RH  048%=      5-min Rain = 0
KMC5 241804Z 16009KT 26/15 A2984 RMK A01 T02630147  RH  049%=      5-min Rain = 0
KMC5 241805Z 15007KT 27/15 A2984 RMK A01 T02650150  RH  049%=      5-min Rain = 0
KMC5 241806Z 13011G16KT 27/16 A2984 RMK A01 T02680155  RH  050%=      5-min Rain = 0
KMC5 241807Z 16010KT 27/15 A2984 RMK A01 T02700151  RH  048%=      5-min Rain = 0
KMC5 241808Z 18010KT 27/15 A2984 RMK A01 T02700151  RH  048%=      5-min Rain = 0
KMC5 241809Z 18012G17KT 27/16 A2983 RMK A01 T02710156  RH  049%=      5-min Rain = 0
KMC5 241810Z 16013G18KT 28/16 A2983 RMK A01 T02750156  RH  048%=      5-min Rain = 0
KMC5 241811Z 17015KT 28/15 A2983 RMK A01 T02760152  RH  047%=      5-min Rain = 0
KMC5 241812Z 16015KT 27/15 A2983 RMK A01 T02740145  RH  045%=      5-min Rain = 0
KMC5 241813Z 17014KT 27/14 A2983 RMK A01 T02700144  RH  046%=      5-min Rain = 0
KMC5 241814Z 17009KT 27/15 A2983 RMK A01 T02680147  RH  047%=      5-min Rain = 0
KMC5 241815Z 17009KT 27/15 A2983 RMK A01 T02690145  RH  046%=      5-min Rain = 0
KMC5 241816Z 18007KT 27/15 A2983 RMK A01 T02680150  RH  048%=      5-min Rain = 0
KMC5 241817Z 17008KT 27/15 A2983 RMK A01 T02710153  RH  049%=      5-min Rain = 0
KMC5 241818Z 18011KT 27/15 A2983 RMK A01 T02730152  RH  047%=      5-min Rain = 0
KMC5 241819Z 18012KT 27/15 A2983 RMK A01 T02730148  RH  046%=      5-min Rain = 0
KMC5 241820Z 17013KT 27/15 A2983 RMK A01 T02720148  RH  047%=      5-min Rain = 0
KMC5 241821Z 18009KT 27/15 A2983 RMK A01 T02710148  RH  047%=      5-min Rain = 0
KMC5 241822Z 18009KT 27/15 A2983 RMK A01 T02710150  RH  048%=      5-min Rain = 0
KMC5 241823Z 19008KT 27/15 A2983 RMK A01 T02720145  RH  046%=      5-min Rain = 0
KMC5 241824Z 18010KT 27/14 A2983 RMK A01 T02690143  RH  046%=      5-min Rain = 0
KMC5 241825Z 17010KT 27/15 A2983 RMK A01 T02680149  RH  048%=      5-min Rain = 0
KMC5 241826Z 19011G16KT 27/16 A2983 RMK A01 T02730155  RH  049%=      5-min Rain = 0
KMC5 241827Z 17010KT 28/15 A2983 RMK A01 T02750152  RH  047%=      5-min Rain = 0
KMC5 241828Z 18013KT 28/15 A2983 RMK A01 T02750150  RH  047%=      5-min Rain = 0
KMC5 241829Z 16012KT 27/15 A2983 RMK A01 T02740149  RH  046%=      5-min Rain = 0
KMC5 241830Z 15012KT 27/15 A2983 RMK A01 T02730145  RH  045%=      5-min Rain = 0
KMC5 241831Z 15012KT 27/15 A2983 RMK A01 T02720148  RH  046%=      5-min Rain = 0
KMC5 241832Z 14013KT 27/15 A2983 RMK A01 T02730148  RH  046%=      5-min Rain = 0
KMC5 241833Z 16009KT 27/15 A2983 RMK A01 T02740149  RH  046%=      5-min Rain = 0
KMC5 241834Z 20007KT 27/14 A2983 RMK A01 T02740141  RH  044%=      5-min Rain = 0
KMC5 241835Z 18009G17KT 27/15 A2983 RMK A01 T02700150  RH  048%=      5-min Rain = 0
KMC5 241836Z 19014KT 27/15 A2983 RMK A01 T02720148  RH  047%=      5-min Rain = 0
KMC5 241837Z 19013KT 27/15 A2983 RMK A01 T02730146  RH  046%=      5-min Rain = 0
KMC5 241838Z 20012KT 27/15 A2983 RMK A01 T02730146  RH  046%=      5-min Rain = 0
KMC5 241839Z 21010KT 27/15 A2983 RMK A01 T02730147  RH  046%=      5-min Rain = 0
KMC5 241840Z 18011KT 27/15 A2983 RMK A01 T02740147  RH  046%=      5-min Rain = 0
KMC5 241841Z 20014KT 28/15 A2982 RMK A01 T02750154  RH  047%=      5-min Rain = 0
KMC5 241842Z 21013KT 28/15 A2982 RMK A01 T02780149  RH  045%=      5-min Rain = 0
KMC5 241843Z 18011KT 28/15 A2982 RMK A01 T02770149  RH  046%=      5-min Rain = 0
KMC5 241844Z 18010KT 28/15 A2982 RMK A01 T02760148  RH  045%=      5-min Rain = 0
KMC5 241845Z 19009KT 28/15 A2982 RMK A01 T02750148  RH  046%=      5-min Rain = 0
KMC5 241846Z 20011KT 28/15 A2982 RMK A01 T02750153  RH  047%=      5-min Rain = 0
KMC5 241847Z 17010G15KT 28/16 A2982 RMK A01 T02790156  RH  047%=      5-min Rain = 0
KMC5 241848Z 15009KT 28/16 A2982 RMK A01 T02820159  RH  047%=      5-min Rain = 0
KMC5 241849Z 14009KT 28/15 A2982 RMK A01 T02820150  RH  045%=      5-min Rain = 0
KMC5 241850Z 14009KT 28/15 A2982 RMK A01 T02790154  RH  047%=      5-min Rain = 0
KMC5 241851Z 17009KT 28/15 A2982 RMK A01 T02790153  RH  046%=      5-min Rain = 0
KMC5 241852Z 15011KT 28/16 A2982 RMK A01 T02810158  RH  047%=      5-min Rain = 0
KMC5 241853Z 16016KT 28/15 A2982 RMK A01 T02820151  RH  045%=      5-min Rain = 0
KMC5 241854Z 18012KT 28/15 A2982 RMK A01 T02800147  RH  044%=      5-min Rain = 0
KMC5 241855Z 19008KT 28/15 A2982 RMK A01 T02760147  RH  045%=      5-min Rain = 0
KMC5 241856Z 17012G17KT 28/15 A2982 RMK A01 T02760153  RH  047%=      5-min Rain = 0
KMC5 241857Z 15012KT 28/16 A2982 RMK A01 T02800157  RH  047%=      5-min Rain = 0
KMC5 241858Z 17011KT 28/16 A2982 RMK A01 T02830161  RH  047%=      5-min Rain = 0
KMC5 241859Z 17011KT 29/16 A2982 RMK A01 T02870156  RH  045%=      5-min Rain = 0
KMC5 241900Z 15015KT 29/15 A2982 RMK A01 T02850151  RH  044%=      5-min Rain = 0
KMC5 241901Z 17014KT 28/15 A2982 RMK A01 T02830152  RH  045%=      5-min Rain = 0
KMC5 241902Z 17012KT 28/15 A2982 RMK A01 T02830152  RH  045%=      5-min Rain = 0
KMC5 241903Z 18010KT 28/15 A2982 RMK A01 T02830153  RH  045%=      5-min Rain = 0
KMC5 241904Z 20007KT 28/15 A2982 RMK A01 T02820148  RH  044%=      5-min Rain = 0
KMC5 241905Z 18010KT 28/15 A2982 RMK A01 T02800151  RH  045%=      5-min Rain = 0
KMC5 241906Z 16008KT 28/15 A2982 RMK A01 T02790151  RH  046%=      5-min Rain = 0
KMC5 241907Z 14012KT 28/15 A2982 RMK A01 T02790153  RH  046%=      5-min Rain = 0
KMC5 241908Z 14012KT 28/15 A2982 RMK A01 T02790150  RH  045%=      5-min Rain = 0
KMC5 241909Z 15010G15KT 28/15 A2982 RMK A01 T02780149  RH  045%=      5-min Rain = 0
KMC5 241910Z 16010KT 28/15 A2982 RMK A01 T02780151  RH  046%=      5-min Rain = 0
KMC5 241911Z 16013KT 28/16 A2982 RMK A01 T02800156  RH  047%=      5-min Rain = 0
KMC5 241912Z 16013KT 28/15 A2982 RMK A01 T02820153  RH  045%=      5-min Rain = 0
KMC5 241913Z 14012KT 28/15 A2982 RMK A01 T02820153  RH  046%=      5-min Rain = 0
KMC5 241914Z 16012KT 28/16 A2982 RMK A01 T02810157  RH  047%=      5-min Rain = 0
KMC5 241915Z 17012KT 28/15 A2982 RMK A01 T02830153  RH  045%=      5-min Rain = 0
KMC5 241916Z 17007KT 28/15 A2982 RMK A01 T02800149  RH  045%=      5-min Rain = 0
KMC5 241917Z 14009KT 28/16 A2982 RMK A01 T02780158  RH  048%=      5-min Rain = 0
KMC5 241918Z 15011KT 28/16 A2982 RMK A01 T02830158  RH  047%=      5-min Rain = 0
KMC5 241919Z 15010KT 28/15 A2982 RMK A01 T02840153  RH  045%=      5-min Rain = 0
KMC5 241920Z 17010KT 28/15 A2982 RMK A01 T02830150  RH  044%=      5-min Rain = 0
KMC5 241921Z 19009KT 28/15 A2982 RMK A01 T02810149  RH  045%=      5-min Rain = 0
KMC5 241922Z 18007KT 28/15 A2982 RMK A01 T02790154  RH  046%=      5-min Rain = 0
KMC5 241923Z 16010KT 28/16 A2982 RMK A01 T02820158  RH  047%=      5-min Rain = 0
KMC5 241924Z 16009KT 28/15 A2982 RMK A01 T02840150  RH  044%=      5-min Rain = 0
KMC5 241925Z 17015KT 28/15 A2981 RMK A01 T02830153  RH  045%=      5-min Rain = 0
KMC5 241926Z 19013KT 28/15 A2981 RMK A01 T02830148  RH  044%=      5-min Rain = 0
KMC5 241927Z 17014KT 28/16 A2981 RMK A01 T02820156  RH  046%=      5-min Rain = 0
KMC5 241928Z 16011KT 29/16 A2981 RMK A01 T02860160  RH  046%=      5-min Rain = 0
KMC5 241929Z 14012KT 29/16 A2981 RMK A01 T02870157  RH  045%=      5-min Rain = 0
KMC5 241930Z 15012KT 29/16 A2981 RMK A01 T02870157  RH  045%=      5-min Rain = 0
KMC5 241931Z 15009KT 29/16 A2981 RMK A01 T02880156  RH  045%=      5-min Rain = 0
KMC5 241932Z 15009KT 29/16 A2981 RMK A01 T02880158  RH  045%=      5-min Rain = 0
KMC5 241933Z 15012KT 29/15 A2981 RMK A01 T02890154  RH  044%=      5-min Rain = 0
KMC5 241934Z 13009KT 29/15 A2981 RMK A01 T02860152  RH  044%=      5-min Rain = 0
KMC5 241935Z 15010KT 29/15 A2981 RMK A01 T02850149  RH  043%=      5-min Rain = 0
KMC5 241936Z 16010KT 28/15 A2981 RMK A01 T02820147  RH  044%=      5-min Rain = 0
KMC5 241937Z 14010KT 28/15 A2981 RMK A01 T02810153  RH  046%=      5-min Rain = 0
KMC5 241938Z 13013KT 28/15 A2981 RMK A01 T02830152  RH  045%=      5-min Rain = 0
KMC5 241939Z 14009KT 28/15 A2981 RMK A01 T02830148  RH  044%=      5-min Rain = 0
KMC5 241940Z 12008KT 28/16 A2981 RMK A01 T02830158  RH  047%=      5-min Rain = 0
KMC5 241941Z 15010KT 29/16 A2981 RMK A01 T02880159  RH  046%=      5-min Rain = 0
KMC5 241942Z 16013KT 29/16 A2981 RMK A01 T02900160  RH  045%=      5-min Rain = 0
KMC5 241943Z 17010KT 29/16 A2981 RMK A01 T02930160  RH  045%=      5-min Rain = 0
KMC5 241944Z 15013KT 29/16 A2981 RMK A01 T02930155  RH  043%=      5-min Rain = 0
KMC5 241945Z 15016KT 29/15 A2981 RMK A01 T02900151  RH  043%=      5-min Rain = 0
KMC5 241946Z 15013G18KT 29/16 A2981 RMK A01 T02880155  RH  044%=      5-min Rain = 0
KMC5 241947Z 15011KT 29/15 A2981 RMK A01 T02890151  RH  043%=      5-min Rain = 0
KMC5 241948Z 14010KT 29/15 A2981 RMK A01 T02880151  RH  043%=      5-min Rain = 0
KMC5 241949Z 14013KT 29/15 A2981 RMK A01 T02870147  RH  042%=      5-min Rain = 0
KMC5 241950Z 14009G14KT 29/15 A2981 RMK A01 T02850145  RH  042%=      5-min Rain = 0
KMC5 241951Z 13012KT 28/15 A2981 RMK A01 T02830149  RH  044%=      5-min Rain = 0
KMC5 241952Z 14009KT 29/15 A298 RMK A01 T02860151  RH  044%=      5-min Rain = 0
KMC5 241953Z 15007KT 29/15 A298 RMK A01 T02860149  RH  043%=      5-min Rain = 0
KMC5 241954Z 16009KT 29/16 A298 RMK A01 T02880161  RH  046%=      5-min Rain = 0
KMC5 241955Z 17014G19KT 29/16 A298 RMK A01 T02930155  RH  043%=      5-min Rain = 0
KMC5 241956Z 17015KT 29/15 A298 RMK A01 T02930145  RH  041%=      5-min Rain = 0
KMC5 241957Z 17011KT 29/14 A298 RMK A01 T02880141  RH  041%=      5-min Rain = 0
KMC5 241958Z 17012KT 29/15 A298 RMK A01 T02850146  RH  042%=      5-min Rain = 0
KMC5 241959Z 15013KT 29/14 A298 RMK A01 T02860144  RH  042%=      5-min Rain = 0
KMC5 242000Z 16011KT 29/15 A298 RMK A01 T02870148  RH  043%=      5-min Rain = 0
KMC5 242001Z 16009KT 29/14 A298 RMK A01 T02880143  RH  041%=      5-min Rain = 0
KMC5 242002Z 17009KT 29/14 A298 RMK A01 T02860143  RH  042%=      5-min Rain = 0
KMC5 242003Z 17010KT 29/15 A298 RMK A01 T02860146  RH  042%=      5-min Rain = 0
KMC5 242004Z 15011KT 29/14 A298 RMK A01 T02870144  RH  042%=      5-min Rain = 0
KMC5 242005Z 16010KT 29/15 A298 RMK A01 T02870146  RH  042%=      5-min Rain = 0
KMC5 242006Z 15011KT 29/15 A298 RMK A01 T02890145  RH  041%=      5-min Rain = 0
KMC5 242007Z 15012KT 29/15 A298 RMK A01 T02890145  RH  041%=      5-min Rain = 0
KMC5 242008Z 14012KT 29/14 A298 RMK A01 T02890142  RH  041%=      5-min Rain = 0
KMC5 242009Z 15009G18KT 29/14 A298 RMK A01 T02890143  RH  041%=      5-min Rain = 0
KMC5 242010Z 18015KT 29/15 A298 RMK A01 T02910145  RH  041%=      5-min Rain = 0
KMC5 242011Z 17012KT 29/14 A298 RMK A01 T02920143  RH  040%=      5-min Rain = 0
KMC5 242012Z 16009KT 29/14 A298 RMK A01 T02910139  RH  039%=      5-min Rain = 0
KMC5 242013Z 15009KT 29/15 A298 RMK A01 T02900149  RH  042%=      5-min Rain = 0
KMC5 242014Z 16010KT 29/14 A298 RMK A01 T02930143  RH  040%=      5-min Rain = 0
KMC5 242015Z 17012KT 29/15 A298 RMK A01 T02940146  RH  041%=      5-min Rain = 0
KMC5 242016Z 16011KT 29/14 A298 RMK A01 T02940144  RH  040%=      5-min Rain = 0
KMC5 242017Z 15010KT 29/14 A298 RMK A01 T02930142  RH  040%=      5-min Rain = 0
KMC5 242018Z 13008G13KT 29/14 A298 RMK A01 T02920136  RH  038%=      5-min Rain = 0
KMC5 242019Z 12011KT 29/14 A2979 RMK A01 T02890141  RH  040%=      5-min Rain = 0
KMC5 242020Z 13015KT 29/14 A2979 RMK A01 T02910141  RH  040%=      5-min Rain = 0
KMC5 242021Z 16011KT 29/15 A2979 RMK A01 T02930147  RH  041%=      5-min Rain = 0
KMC5 242022Z 17012KT 30/14 A2979 RMK A01 T02970140  RH  038%=      5-min Rain = 0
KMC5 242023Z 18011KT 30/14 A2979 RMK A01 T02960141  RH  039%=      5-min Rain = 0
KMC5 242024Z 19009KT 30/14 A2979 RMK A01 T02950138  RH  038%=      5-min Rain = 0
KMC5 242025Z 15012KT 29/14 A2979 RMK A01 T02940142  RH  039%=      5-min Rain = 0
KMC5 242026Z 13014KT 29/14 A2979 RMK A01 T02940139  RH  038%=      5-min Rain = 0
KMC5 242027Z 14012KT 30/14 A2979 RMK A01 T02950140  RH  039%=      5-min Rain = 0
KMC5 242028Z 14010KT 30/14 A2979 RMK A01 T02950137  RH  038%=      5-min Rain = 0
KMC5 242029Z 17009KT 29/14 A2979 RMK A01 T02930136  RH  038%=      5-min Rain = 0
KMC5 242030Z 15009KT 29/14 A2979 RMK A01 T02930140  RH  039%=      5-min Rain = 0
KMC5 242031Z 16010KT 30/14 A2979 RMK A01 T02950142  RH  039%=      5-min Rain = 0
KMC5 242032Z 15011KT 30/14 A2979 RMK A01 T02960141  RH  039%=      5-min Rain = 0
KMC5 242033Z 16012KT 30/14 A2979 RMK A01 T02990139  RH  038%=      5-min Rain = 0
KMC5 242034Z 15009KT 30/14 A2979 RMK A01 T03000136  RH  037%=      5-min Rain = 0
KMC5 242035Z 14007KT 30/14 A2978 RMK A01 T03000137  RH  037%=      5-min Rain = 0
KMC5 242036Z 14010KT 30/14 A2978 RMK A01 T03000144  RH  038%=      5-min Rain = 0
KMC5 242037Z 14010KT 30/13 A2978 RMK A01 T03010134  RH  036%=      5-min Rain = 0
KMC5 242038Z 14010KT 30/14 A2978 RMK A01 T02980135  RH  037%=      5-min Rain = 0
KMC5 242039Z 15011KT 30/14 A2978 RMK A01 T02960135  RH  037%=      5-min Rain = 0
KMC5 242040Z 16013KT 30/14 A2978 RMK A01 T02960139  RH  038%=      5-min Rain = 0
KMC5 242041Z 17014KT 30/13 A2978 RMK A01 T02990133  RH  036%=      5-min Rain = 0
KMC5 242042Z 17014KT 30/13 A2978 RMK A01 T03000132  RH  036%=      5-min Rain = 0
KMC5 242043Z 18013KT 30/13 A2978 RMK A01 T02990132  RH  036%=      5-min Rain = 0
KMC5 242044Z 17014KT 30/13 A2978 RMK A01 T02990134  RH  036%=      5-min Rain = 0
KMC5 242045Z 16011KT 30/13 A2978 RMK A01 T03000129  RH  035%=      5-min Rain = 0
KMC5 242046Z 17011KT 30/13 A2978 RMK A01 T03000133  RH  036%=      5-min Rain = 0
KMC5 242047Z 16009KT 30/13 A2978 RMK A01 T03010128  RH  035%=      5-min Rain = 0
KMC5 242048Z 16010KT 30/13 A2978 RMK A01 T02990127  RH  035%=      5-min Rain = 0
KMC5 242049Z 16011KT 30/13 A2978 RMK A01 T02980130  RH  036%=      5-min Rain = 0
KMC5 242050Z 14013KT 30/13 A2978 RMK A01 T02980132  RH  036%=      5-min Rain = 0
KMC5 242051Z 15014KT 30/13 A2978 RMK A01 T02990132  RH  036%=      5-min Rain = 0
KMC5 242052Z 16014KT 30/14 A2978 RMK A01 T03000135  RH  036%=      5-min Rain = 0
KMC5 242053Z 14013KT 30/14 A2977 RMK A01 T03000139  RH  037%=      5-min Rain = 0
KMC5 242054Z 15015KT 30/14 A2977 RMK A01 T03020138  RH  037%=      5-min Rain = 0
KMC5 242055Z 15015KT 30/14 A2977 RMK A01 T03030137  RH  036%=      5-min Rain = 0
KMC5 242056Z 14012KT 30/13 A2977 RMK A01 T03020132  RH  035%=      5-min Rain = 0
KMC5 242057Z 14011KT 30/13 A2977 RMK A01 T03000133  RH  036%=      5-min Rain = 0
KMC5 242058Z 13010KT 30/13 A2977 RMK A01 T03000127  RH  035%=      5-min Rain = 0
KMC5 242059Z 13008KT 30/13 A2977 RMK A01 T02990133  RH  036%=      5-min Rain = 0
KMC5 242100Z 13012KT 30/13 A2977 RMK A01 T03000131  RH  036%=      5-min Rain = 0
KMC5 242101Z 14015KT 30/14 A2977 RMK A01 T03010135  RH  036%=      5-min Rain = 0
KMC5 242102Z 16014KT 30/13 A2977 RMK A01 T03030133  RH  035%=      5-min Rain = 0
KMC5 242103Z 17013KT 31/13 A2977 RMK A01 T03050128  RH  034%=      5-min Rain = 0
KMC5 242104Z 17011KT 30/13 A2977 RMK A01 T03040134  RH  035%=      5-min Rain = 0
KMC5 242105Z 14010KT 31/15 A2977 RMK A01 T03060146  RH  038%=      5-min Rain = 0
KMC5 242106Z 14012KT 31/14 A2977 RMK A01 T03080143  RH  037%=      5-min Rain = 0
KMC5 242107Z 17013KT 31/15 A2976 RMK A01 T03070145  RH  037%=      5-min Rain = 0
KMC5 242108Z 16012KT 31/14 A2976 RMK A01 T03060143  RH  037%=      5-min Rain = 0
KMC5 242109Z 14011KT 31/14 A2976 RMK A01 T03060139  RH  036%=      5-min Rain = 0
KMC5 242110Z 13009KT 31/13 A2976 RMK A01 T03050133  RH  035%=      5-min Rain = 0
KMC5 242111Z 15010KT 30/14 A2976 RMK A01 T03030137  RH  036%=      5-min Rain = 0
KMC5 242112Z 13009KT 30/14 A2976 RMK A01 T03010135  RH  036%=      5-min Rain = 0
KMC5 242113Z 14011KT 30/14 A2976 RMK A01 T03000139  RH  037%=      5-min Rain = 0
KMC5 242114Z 14009KT 30/14 A2976 RMK A01 T03010141  RH  038%=      5-min Rain = 0
KMC5 242115Z 15011KT 31/14 A2976 RMK A01 T03050144  RH  037%=      5-min Rain = 0
KMC5 242116Z 15012KT 31/14 A2976 RMK A01 T03090140  RH  036%=      5-min Rain = 0
KMC5 242117Z 14010G15KT 31/13 A2976 RMK A01 T03090133  RH  034%=      5-min Rain = 0
KMC5 242118Z 15014KT 31/13 A2976 RMK A01 T03080134  RH  035%=      5-min Rain = 0
KMC5 242119Z 14015KT 31/13 A2976 RMK A01 T03080131  RH  034%=      5-min Rain = 0
KMC5 242120Z 15013KT 31/13 A2976 RMK A01 T03080129  RH  034%=      5-min Rain = 0
KMC5 242121Z 16012KT 31/13 A2976 RMK A01 T03070129  RH  034%=      5-min Rain = 0
KMC5 242122Z 14011KT 31/13 A2976 RMK A01 T03060132  RH  034%=      5-min Rain = 0
KMC5 242123Z 17011KT 31/13 A2976 RMK A01 T03050126  RH  033%=      5-min Rain = 0
KMC5 242124Z 17009KT 30/13 A2976 RMK A01 T03030130  RH  035%=      5-min Rain = 0
KMC5 242125Z 13012KT 30/13 A2975 RMK A01 T03030130  RH  035%=      5-min Rain = 0
KMC5 242126Z 13012KT 30/13 A2975 RMK A01 T03030128  RH  034%=      5-min Rain = 0
KMC5 242127Z 13012KT 30/13 A2975 RMK A01 T03030134  RH  036%=      5-min Rain = 0
KMC5 242128Z 12015KT 30/13 A2975 RMK A01 T03040127  RH  034%=      5-min Rain = 0
KMC5 242129Z 15015KT 31/13 A2975 RMK A01 T03050126  RH  033%=      5-min Rain = 0
KMC5 242130Z 16015KT 30/12 A2975 RMK A01 T03020124  RH  033%=      5-min Rain = 0
KMC5 242131Z 15015KT 30/12 A2975 RMK A01 T02980119  RH  033%=      5-min Rain = 0
KMC5 242132Z 15011KT 29/12 A2975 RMK A01 T02940124  RH  035%=      5-min Rain = 0
KMC5 242133Z 16011KT 29/12 A2975 RMK A01 T02920124  RH  035%=      5-min Rain = 0
KMC5 242134Z 17011KT 29/12 A2975 RMK A01 T02920123  RH  035%=      5-min Rain = 0
KMC5 242135Z 17011KT 29/12 A2975 RMK A01 T02940124  RH  035%=      5-min Rain = 0
KMC5 242136Z 16011KT 30/13 A2975 RMK A01 T02950131  RH  036%=      5-min Rain = 0
KMC5 242137Z 16014KT 30/14 A2975 RMK A01 T02980135  RH  037%=      5-min Rain = 0
KMC5 242138Z 16014KT 30/14 A2975 RMK A01 T02980136  RH  037%=      5-min Rain = 0
KMC5 242139Z 15014KT 30/14 A2975 RMK A01 T02980136  RH  037%=      5-min Rain = 0
KMC5 242140Z 15012KT 30/13 A2975 RMK A01 T02980130  RH  036%=      5-min Rain = 0
KMC5 242141Z 13012KT 30/13 A2975 RMK A01 T02970131  RH  036%=      5-min Rain = 0
KMC5 242142Z 13012KT 30/13 A2975 RMK A01 T02980126  RH  035%=      5-min Rain = 0
KMC5 242143Z 14009KT 30/13 A2975 RMK A01 T02990130  RH  035%=      5-min Rain = 0
KMC5 242144Z 14010KT 30/13 A2974 RMK A01 T03020131  RH  035%=      5-min Rain = 0
KMC5 242145Z 16012KT 31/13 A2974 RMK A01 T03060133  RH  035%=      5-min Rain = 0
KMC5 242146Z 15010KT 31/13 A2974 RMK A01 T03060130  RH  034%=      5-min Rain = 0
KMC5 242147Z 14010KT 31/14 A2974 RMK A01 T03070135  RH  035%=      5-min Rain = 0
KMC5 242148Z 14015KT 31/13 A2974 RMK A01 T03090133  RH  034%=      5-min Rain = 0
KMC5 242149Z 16013G19KT 31/13 A2974 RMK A01 T03100132  RH  034%=      5-min Rain = 0
KMC5 242150Z 16011KT 31/13 A2974 RMK A01 T03090125  RH  032%=      5-min Rain = 0
KMC5 242151Z 17011KT 31/13 A2974 RMK A01 T03080127  RH  033%=      5-min Rain = 0
KMC5 242152Z 17011KT 31/13 A2974 RMK A01 T03080134  RH  035%=      5-min Rain = 0
KMC5 242153Z 17015KT 31/13 A2974 RMK A01 T03100132  RH  034%=      5-min Rain = 0
KMC5 242154Z 16014KT 31/13 A2974 RMK A01 T03090125  RH  032%=      5-min Rain = 0
KMC5 242155Z 15016KT 31/13 A2974 RMK A01 T03060130  RH  034%=      5-min Rain = 0
KMC5 242156Z 15018KT 31/12 A2974 RMK A01 T03080121  RH  032%=      5-min Rain = 0
KMC5 242157Z 15015KT 31/12 A2974 RMK A01 T03070122  RH  032%=      5-min Rain = 0
KMC5 242158Z 14012KT 31/12 A2973 RMK A01 T03070121  RH  032%=      5-min Rain = 0
KMC5 242159Z 16014KT 31/12 A2973 RMK A01 T03060123  RH  033%=      5-min Rain = 0
KMC5 242200Z 15014KT 31/12 A2973 RMK A01 T03060121  RH  032%=      5-min Rain = 0
KMC5 242201Z 14015KT 31/13 A2973 RMK A01 T03060125  RH  033%=      5-min Rain = 0
KMC5 242202Z 14015KT 31/12 A2973 RMK A01 T03080121  RH  032%=      5-min Rain = 0
KMC5 242203Z 14018KT 31/12 A2973 RMK A01 T03080119  RH  031%=      5-min Rain = 0
KMC5 242204Z 15015KT 31/12 A2973 RMK A01 T03080119  RH  031%=      5-min Rain = 0
KMC5 242205Z 15015KT 31/12 A2973 RMK A01 T03070124  RH  032%=      5-min Rain = 0
KMC5 242206Z 17014KT 31/12 A2973 RMK A01 T03080119  RH  031%=      5-min Rain = 0
KMC5 242207Z 15014KT 31/13 A2973 RMK A01 T03070125  RH  033%=      5-min Rain = 0
KMC5 242208Z 13012KT 31/13 A2973 RMK A01 T03080125  RH  033%=      5-min Rain = 0
KMC5 242209Z 14011G17KT 31/13 A2972 RMK A01 T03100130  RH  033%=      5-min Rain = 0
KMC5 242210Z 14015KT 31/12 A2972 RMK A01 T03110120  RH  031%=      5-min Rain = 0
KMC5 242211Z 15013KT 31/12 A2972 RMK A01 T03090118  RH  031%=      5-min Rain = 0
KMC5 242212Z 14012G17KT 31/13 A2972 RMK A01 T03080125  RH  033%=      5-min Rain = 0
KMC5 242213Z 14013KT 31/12 A2972 RMK A01 T03090124  RH  032%=      5-min Rain = 0
KMC5 242214Z 15014G19KT 31/13 A2972 RMK A01 T03090129  RH  033%=      5-min Rain = 0
KMC5 242215Z 16013KT 31/12 A2972 RMK A01 T03090124  RH  032%=      5-min Rain = 0
KMC5 242216Z 16013KT 31/13 A2972 RMK A01 T03080128  RH  033%=      5-min Rain = 0
KMC5 242217Z 15012KT 31/13 A2972 RMK A01 T03080133  RH  034%=      5-min Rain = 0
KMC5 242218Z 15012G17KT 31/13 A2972 RMK A01 T03090134  RH  034%=      5-min Rain = 0
KMC5 242219Z 16013KT 31/14 A2972 RMK A01 T03090135  RH  035%=      5-min Rain = 0
KMC5 242220Z 16013G20KT 31/14 A2972 RMK A01 T03090140  RH  036%=      5-min Rain = 0
KMC5 242221Z 14019KT 31/14 A2972 RMK A01 T03090142  RH  036%=      5-min Rain = 0
KMC5 242222Z 14016KT 31/14 A2972 RMK A01 T03080136  RH  035%=      5-min Rain = 0
KMC5 242223Z 14015KT 31/14 A2972 RMK A01 T03060139  RH  036%=      5-min Rain = 0
KMC5 242224Z 15014KT 31/14 A2972 RMK A01 T03050138  RH  036%=      5-min Rain = 0
KMC5 242225Z 13013KT 31/14 A2972 RMK A01 T03050140  RH  037%=      5-min Rain = 0
KMC5 242226Z 14011KT 30/14 A2972 RMK A01 T03040143  RH  038%=      5-min Rain = 0
KMC5 242227Z 13013KT 30/15 A2972 RMK A01 T03040146  RH  038%=      5-min Rain = 0
KMC5 242228Z 12012KT 31/15 A2972 RMK A01 T03060146  RH  038%=      5-min Rain = 0
KMC5 242229Z 13013KT 31/14 A2972 RMK A01 T03060144  RH  037%=      5-min Rain = 0
KMC5 242230Z 14014KT 31/14 A2972 RMK A01 T03050142  RH  037%=      5-min Rain = 0
KMC5 242231Z 14011KT 30/15 A2972 RMK A01 T03040148  RH  039%=      5-min Rain = 0
KMC5 242232Z 15015KT 31/15 A2972 RMK A01 T03060151  RH  039%=      5-min Rain = 0
KMC5 242233Z 14016KT 31/15 A2972 RMK A01 T03080149  RH  038%=      5-min Rain = 0
KMC5 242234Z 13014KT 31/14 A2972 RMK A01 T03070143  RH  037%=      5-min Rain = 0
KMC5 242235Z 14012KT 31/15 A2972 RMK A01 T03050146  RH  038%=      5-min Rain = 0
KMC5 242236Z 14013KT 31/15 A2972 RMK A01 T03050145  RH  038%=      5-min Rain = 0
KMC5 242237Z 16013KT 31/15 A2972 RMK A01 T03050145  RH  038%=      5-min Rain = 0
KMC5 242238Z 18013KT 31/13 A2972 RMK A01 T03070133  RH  034%=      5-min Rain = 0
KMC5 242239Z 18013KT 31/13 A2971 RMK A01 T03080130  RH  034%=      5-min Rain = 0
KMC5 242240Z 15013KT 31/13 A2971 RMK A01 T03080133  RH  034%=      5-min Rain = 0
KMC5 242241Z 16013KT 31/13 A2971 RMK A01 T03080133  RH  034%=      5-min Rain = 0
KMC5 242242Z 16015KT 31/14 A2971 RMK A01 T03070137  RH  035%=      5-min Rain = 0
KMC5 242243Z 15020KT 31/14 A2971 RMK A01 T03070142  RH  037%=      5-min Rain = 0
KMC5 242244Z 15017KT 31/14 A2971 RMK A01 T03050144  RH  038%=      5-min Rain = 0
KMC5 242245Z 15014KT 30/14 A2971 RMK A01 T03010140  RH  037%=      5-min Rain = 0
KMC5 242246Z 12016KT 30/14 A297 RMK A01 T02980144  RH  039%=      5-min Rain = 0
KMC5 242247Z 12019KT 30/14 A297 RMK A01 T02950141  RH  039%=      5-min Rain = 0
KMC5 242248Z 13016KT 29/14 A297 RMK A01 T02920142  RH  040%=      5-min Rain = 0
KMC5 242249Z 14017KT 29/14 A297 RMK A01 T02900143  RH  041%=      5-min Rain = 0
KMC5 242250Z 14014KT 29/14 A297 RMK A01 T02880144  RH  041%=      5-min Rain = 0
KMC5 242251Z 14015G21KT 29/15 A297 RMK A01 T02870146  RH  042%=      5-min Rain = 0
KMC5 242252Z 14017KT 29/14 A2969 RMK A01 T02850144  RH  042%=      5-min Rain = 0
KMC5 242253Z 14015G20KT 28/14 A2969 RMK A01 T02840143  RH  042%=      5-min Rain = 0
KMC5 242254Z 14014KT 28/14 A2969 RMK A01 T02830142  RH  042%=      5-min Rain = 0
KMC5 242255Z 14014KT 28/14 A2969 RMK A01 T02830142  RH  042%=      5-min Rain = 0
KMC5 242256Z 13012KT 28/14 A2969 RMK A01 T02820142  RH  042%=      5-min Rain = 0
KMC5 242257Z 14012KT 28/14 A2969 RMK A01 T02820143  RH  043%=      5-min Rain = 0
KMC5 242258Z 12010KT 28/15 A2969 RMK A01 T02810145  RH  043%=      5-min Rain = 0
KMC5 242259Z 13014KT 28/15 A2969 RMK A01 T02800146  RH  044%=      5-min Rain = 0
KMC5 242300Z 14016KT 28/15 A297 RMK A01 T02800147  RH  044%=      5-min Rain = 0
KMC5 242301Z 14013KT 28/15 A297 RMK A01 T02800145  RH  044%=      5-min Rain = 0
KMC5 242302Z 15014KT 28/15 A297 RMK A01 T02800145  RH  044%=      5-min Rain = 0
KMC5 242303Z 16017KT 28/14 A297 RMK A01 T02810143  RH  043%=      5-min Rain = 0
KMC5 242304Z 15015KT 28/14 A297 RMK A01 T02820142  RH  043%=      5-min Rain = 0
KMC5 242305Z 15013KT 28/14 A297 RMK A01 T02820143  RH  043%=      5-min Rain = 0
KMC5 242306Z 16015KT 28/15 A297 RMK A01 T02820145  RH  043%=      5-min Rain = 0
KMC5 242307Z 16015KT 28/15 A297 RMK A01 T02810145  RH  043%=      5-min Rain = 0
KMC5 242308Z 15013KT 28/15 A297 RMK A01 T02810147  RH  044%=      5-min Rain = 0
KMC5 242309Z 15015KT 28/15 A2969 RMK A01 T02800146  RH  044%=      5-min Rain = 0
KMC5 242310Z 15014KT 28/15 A297 RMK A01 T02800147  RH  044%=      5-min Rain = 0
KMC5 242311Z 16012KT 28/15 A297 RMK A01 T02790148  RH  045%=      5-min Rain = 0
KMC5 242312Z 17012KT 28/15 A2971 RMK A01 T02780148  RH  045%=      5-min Rain = 0
KMC5 242313Z 20012KT 28/15 A2971 RMK A01 T02780148  RH  045%=      5-min Rain = 0
KMC5 242314Z 23014KT 28/15 A2973 RMK A01 T02780151  RH  046%=      5-min Rain = 0
KMC5 242315Z 26017KT 28/13 A2973 RMK A01 T02770131  RH  041%=      5-min Rain = 0
KMC5 242316Z 26016G21KT 28/06 A2973 RMK A01 T02760061  RH  026%=      5-min Rain = 0
KMC5 242317Z 27013KT 27/06 A2972 RMK A01 T02740057  RH  025%=      5-min Rain = 0
KMC5 242318Z 26012KT 27/06 A2972 RMK A01 T02720061  RH  026%=      5-min Rain = 0
KMC5 242319Z 25015G20KT 27/06 A2972 RMK A01 T02700057  RH  026%=      5-min Rain = 0
KMC5 242320Z 25016KT 27/05 A2972 RMK A01 T02680054  RH  025%=      5-min Rain = 0
KMC5 242321Z 25017KT 27/06 A2972 RMK A01 T02650058  RH  027%=      5-min Rain = 0
KMC5 242322Z 26015KT 26/06 A2972 RMK A01 T02610059  RH  027%=      5-min Rain = 0
KMC5 242323Z 25014KT 26/07 A2973 RMK A01 T02580068  RH  030%=      5-min Rain = 0
KMC5 242324Z 26016KT 25/08 A2973 RMK A01 T02530076  RH  032%=      5-min Rain = 0
KMC5 242325Z 26020G26KT 25/08 A2973 RMK A01 T02470077  RH  034%=      5-min Rain = 0
KMC5 242326Z 26017G22KT 24/08 A2973 RMK A01 T02430077  RH  035%=      5-min Rain = 0
KMC5 242327Z 26017KT 24/08 A2973 RMK A01 T02400076  RH  035%=      5-min Rain = 0
KMC5 242328Z 26016KT 24/08 A2973 RMK A01 T02400077  RH  035%=      5-min Rain = 0
KMC5 242329Z 26014KT 24/09 A2973 RMK A01 T02380085  RH  038%=      5-min Rain = 0
KMC5 242330Z 26015KT 23/10 A2973 RMK A01 T02340097  RH  042%=      5-min Rain = 0
KMC5 242331Z 25018G24KT 23/11 A2974 RMK A01 T02260107  RH  047%=      5-min Rain = 0
KMC5 242332Z 25032G39KT 21/11 A2974 RMK A01 T02130113  RH  053%=      5-min Rain = 0.01
KMC5 242333Z 24027KT 20/12 A2975 RMK A01 T01950115  RH  060%=      5-min Rain = 0
KMC5 242334Z 23026KT 19/11 A2975 RMK A01 T01870108  RH  060%=      5-min Rain = 0.01
KMC5 242335Z 24019KT 19/10 A2975 RMK A01 T01870103  RH  058%=      5-min Rain = 0
KMC5 242336Z 26016KT 19/11 A2975 RMK A01 T01850111  RH  062%=      5-min Rain = 0.02
KMC5 242337Z 25014KT 18/11 A2975 RMK A01 T01800113  RH  065%=      5-min Rain = 0.01
KMC5 242338Z 24012KT 18/11 A2975 RMK A01 T01750112  RH  067%=      5-min Rain = 0.01
KMC5 242339Z 25011KT 17/11 A2975 RMK A01 T01720112  RH  068%=      5-min Rain = 0.01
KMC5 242340Z 26010KT 17/11 A2975 RMK A01 T01710114  RH  069%=      5-min Rain = 0
KMC5 242341Z 27008KT 17/12 A2975 RMK A01 T01700115  RH  070%=      5-min Rain = 0.01
KMC5 242342Z 29009KT 17/12 A2975 RMK A01 T01680117  RH  072%=      5-min Rain = 0.02
KMC5 242343Z 29010KT 17/12 A2974 RMK A01 T01660118  RH  073%=      5-min Rain = 0.01
KMC5 242344Z 30012KT 16/12 A2973 RMK A01 T01640119  RH  075%=      5-min Rain = 0.02
KMC5 242345Z 31013KT 16/12 A2972 RMK A01 T01620118  RH  075%=      5-min Rain = 0.01
KMC5 242346Z 30016KT 16/12 A2972 RMK A01 T01610119  RH  076%=      5-min Rain = 0.01
KMC5 242347Z 30019KT 16/12 A2972 RMK A01 T01580118  RH  077%=      5-min Rain = 0.02
KMC5 242348Z 30018KT 16/12 A2972 RMK A01 T01560115  RH  077%=      5-min Rain = 0.04
KMC5 242349Z 30015KT 15/12 A2972 RMK A01 T01520116  RH  079%=      5-min Rain = 0.02
KMC5 242350Z 31012KT 15/12 A2972 RMK A01 T01500115  RH  080%=      5-min Rain = 0.01
KMC5 242351Z 31009KT 15/11 A2973 RMK A01 T01490112  RH  078%=      5-min Rain = 0.01
KMC5 242352Z 31008KT 15/11 A2973 RMK A01 T01530111  RH  076%=      5-min Rain = 0.01
KMC5 242353Z 32008KT 16/11 A2974 RMK A01 T01560112  RH  075%=      5-min Rain = 0
KMC5 242354Z 33008KT 16/12 A2974 RMK A01 T01570118  RH  078%=      5-min Rain = 0.01
KMC5 242355Z 34010KT 16/12 A2973 RMK A01 T01560118  RH  078%=      5-min Rain = 0.01
KMC5 242356Z 34009KT 16/12 A2973 RMK A01 T01560120  RH  079%=      5-min Rain = 0.01
KMC5 242357Z 33009KT 16/12 A2973 RMK A01 T01550121  RH  080%=      5-min Rain = 0
KMC5 242358Z 32007KT 16/11 A2973 RMK A01 T01560110  RH  074%=      5-min Rain = 0.01
KMC5 242359Z 30006KT 16/11 A2974 RMK A01 T01620111  RH  072%=      5-min Rain = 0.01
KMC5 250000Z 30012KT 17/10 A2974 RMK A01 T01670102  RH  065%=      5-min Rain = 0.02
KMC5 250001Z 29014KT 17/10 A2973 RMK A01 T01740100  RH  062%=      5-min Rain = 0.03
KMC5 250002Z 30011KT 18/11 A2972 RMK A01 T01750107  RH  065%=      5-min Rain = 0.02
KMC5 250003Z 30011KT 17/11 A2972 RMK A01 T01690113  RH  070%=      5-min Rain = 0.01
KMC5 250004Z 31012KT 17/11 A2971 RMK A01 T01650112  RH  071%=      5-min Rain = 0.01
KMC5 250005Z 31011KT 17/11 A2971 RMK A01 T01650107  RH  069%=      5-min Rain = 0.01
KMC5 250006Z 32010KT 17/11 A2971 RMK A01 T01670108  RH  068%=      5-min Rain = 0.01
KMC5 250007Z 35009KT 17/11 A2971 RMK A01 T01670113  RH  071%=      5-min Rain = 0.01
KMC5 250008Z 34008KT 16/12 A2972 RMK A01 T01620117  RH  075%=      5-min Rain = 0.01
KMC5 250009Z 32007KT 16/11 A2973 RMK A01 T01600110  RH  073%=      5-min Rain = 0.01
KMC5 250010Z 33006KT 16/11 A2973 RMK A01 T01630108  RH  070%=      5-min Rain = 0.01
KMC5 250011Z 01005KT 17/11 A2973 RMK A01 T01650113  RH  071%=      5-min Rain = 0.01
KMC5 250012Z 02004KT 16/12 A2973 RMK A01 T01640119  RH  075%=      5-min Rain = 0
KMC5 250013Z 01002KT 16/12 A2974 RMK A01 T01600122  RH  078%=      5-min Rain = 0.01
KMC5 250014Z 03002KT 16/12 A2974 RMK A01 T01580121  RH  079%=      5-min Rain = 0.01
KMC5 250015Z 23003G10KT 16/12 A2974 RMK A01 T01570116  RH  076%=      5-min Rain = 0.04
KMC5 250016Z 24015KT 16/10 A2974 RMK A01 T01630104  RH  068%=      5-min Rain = 0.02
KMC5 250017Z 22017G23KT 17/10 A2974 RMK A01 T01720104  RH  064%=      5-min Rain = 0.04
KMC5 250018Z 23015G21KT 18/11 A2974 RMK A01 T01760106  RH  063%=      5-min Rain = 0.03
KMC5 250019Z 23018G26KT 17/11 A2974 RMK A01 T01710112  RH  068%=      5-min Rain = 0.03
KMC5 250020Z 22026KT 16/11 A2973 RMK A01 T01600109  RH  072%=      5-min Rain = 0.06
KMC5 250021Z 22018G24KT 14/10 A2973 RMK A01 T01420100  RH  076%=      5-min Rain = 0.07
KMC5 250022Z 23011KT 13/10 A2973 RMK A01 T01320100  RH  081%=      5-min Rain = 0.06
KMC5 250023Z 23009KT 13/10 A2972 RMK A01 T01280101  RH  083%=      5-min Rain = 0.05
KMC5 250024Z 24012KT 13/10 A2973 RMK A01 T01280101  RH  084%=      5-min Rain = 0.03
KMC5 250025Z 22011KT 13/10 A2974 RMK A01 T01330102  RH  082%=      5-min Rain = 0.03
KMC5 250026Z 20018KT 14/10 A2974 RMK A01 T01440102  RH  076%=      5-min Rain = 0.01
KMC5 250027Z 21014KT 17/11 A2975 RMK A01 T01680106  RH  067%=      5-min Rain = 0.01
KMC5 250028Z 19021G28KT 17/10 A2975 RMK A01 T01730101  RH  063%=      5-min Rain = 0.01
KMC5 250029Z 20024G29KT 18/10 A2976 RMK A01 T01800102  RH  060%=      5-min Rain = 0
KMC5 250030Z 20026KT 18/10 A2976 RMK A01 T01780103  RH  061%=      5-min Rain = 0
KMC5 250031Z 20026G32KT 17/11 A2976 RMK A01 T01740107  RH  065%=      5-min Rain = 0.01
KMC5 250032Z 20022KT 17/11 A2976 RMK A01 T01670110  RH  069%=      5-min Rain = 0.01
KMC5 250033Z 20021G26KT 16/11 A2976 RMK A01 T01620112  RH  072%=      5-min Rain = 0
KMC5 250034Z 19019KT 16/11 A2976 RMK A01 T01610112  RH  072%=      5-min Rain = 0.01
KMC5 250035Z 20017KT 16/11 A2976 RMK A01 T01610113  RH  073%=      5-min Rain = 0
KMC5 250036Z 20016KT 16/12 A2976 RMK A01 T01600116  RH  075%=      5-min Rain = 0
KMC5 250037Z 19015KT 16/12 A2977 RMK A01 T01590115  RH  075%=      5-min Rain = 0
KMC5 250038Z 18013KT 16/12 A2977 RMK A01 T01570116  RH  077%=      5-min Rain = 0
KMC5 250039Z 19013KT 16/12 A2977 RMK A01 T01550116  RH  078%=      5-min Rain = 0.01
KMC5 250040Z 19014KT 15/11 A2977 RMK A01 T01540114  RH  077%=      5-min Rain = 0.01
KMC5 250041Z 20015KT 15/11 A2976 RMK A01 T01540114  RH  077%=      5-min Rain = 0.01
KMC5 250042Z 21016KT 15/11 A2976 RMK A01 T01540112  RH  076%=      5-min Rain = 0
KMC5 250043Z 21014KT 16/11 A2976 RMK A01 T01560113  RH  075%=      5-min Rain = 0.01
KMC5 250044Z 22013KT 16/12 A2976 RMK A01 T01560115  RH  077%=      5-min Rain = 0.01
KMC5 250045Z 21014KT 16/11 A2976 RMK A01 T01550114  RH  077%=      5-min Rain = 0
KMC5 250046Z 21015KT 16/11 A2976 RMK A01 T01560114  RH  076%=      5-min Rain = 0
KMC5 250047Z 21015KT 16/11 A2976 RMK A01 T01590113  RH  074%=      5-min Rain = 0.01
KMC5 250048Z 22014KT 16/11 A2976 RMK A01 T01630112  RH  072%=      5-min Rain = 0
KMC5 250049Z 21013KT 17/11 A2976 RMK A01 T01660114  RH  071%=      5-min Rain = 0
KMC5 250050Z 23009KT 17/11 A2976 RMK A01 T01670112  RH  070%=      5-min Rain = 0
KMC5 250051Z 24009KT 17/11 A2976 RMK A01 T01690109  RH  067%=      5-min Rain = 0.01
KMC5 250052Z 25008KT 17/11 A2976 RMK A01 T01730105  RH  064%=      5-min Rain = 0
KMC5 250053Z 31007KT 18/12 A2975 RMK A01 T01750115  RH  068%=      5-min Rain = 0
KMC5 250054Z 32007KT 17/12 A2975 RMK A01 T01720116  RH  070%=      5-min Rain = 0
KMC5 250055Z 34009KT 17/12 A2975 RMK A01 T01690121  RH  074%=      5-min Rain = 0
KMC5 250056Z 34010KT 16/13 A2975 RMK A01 T01640125  RH  078%=      5-min Rain = 0
KMC5 250057Z 01008KT 16/12 A2975 RMK A01 T01600124  RH  079%=      5-min Rain = 0
KMC5 250058Z 02005KT 16/12 A2975 RMK A01 T01570124  RH  081%=      5-min Rain = 0
KMC5 250059Z 03005KT 16/13 A2975 RMK A01 T01550125  RH  082%=      5-min Rain = 0.01
KMC5 250100Z 04004KT 15/12 A2975 RMK A01 T01540124  RH  082%=      5-min Rain = 0
KMC5 250101Z 10004KT 15/12 A2976 RMK A01 T01540124  RH  082%=      5-min Rain = 0
KMC5 250102Z 16012G17KT 15/13 A2977 RMK A01 T01530125  RH  083%=      5-min Rain = 0
KMC5 250103Z 15013KT 15/12 A2977 RMK A01 T01540119  RH  080%=      5-min Rain = 0
KMC5 250104Z 15011KT 16/11 A2978 RMK A01 T01620108  RH  071%=      5-min Rain = 0
KMC5 250105Z 13009KT 17/11 A2978 RMK A01 T01690107  RH  067%=      5-min Rain = 0
KMC5 250106Z 11007KT 17/11 A2977 RMK A01 T01720106  RH  065%=      5-min Rain = 0
KMC5 250107Z 09009KT 17/11 A2975 RMK A01 T01730110  RH  067%=      5-min Rain = 0
KMC5 250108Z 08008KT 17/11 A2975 RMK A01 T01720113  RH  068%=      5-min Rain = 0
KMC5 250109Z 07009KT 17/12 A2975 RMK A01 T01670117  RH  072%=      5-min Rain = 0
KMC5 250110Z 06010KT 17/11 A2974 RMK A01 T01650112  RH  071%=      5-min Rain = 0
KMC5 250111Z 06010KT 17/11 A2974 RMK A01 T01650113  RH  071%=      5-min Rain = 0
KMC5 250112Z 05009KT 16/11 A2973 RMK A01 T01640112  RH  071%=      5-min Rain = 0
KMC5 250113Z 05009KT 16/11 A2973 RMK A01 T01640113  RH  072%=      5-min Rain = 0
KMC5 250114Z 06009KT 16/12 A2973 RMK A01 T01630116  RH  073%=      5-min Rain = 0
KMC5 250115Z 06009KT 16/11 A2973 RMK A01 T01620114  RH  073%=      5-min Rain = 0
KMC5 250116Z 06010KT 16/11 A2973 RMK A01 T01620110  RH  071%=      5-min Rain = 0
KMC5 250117Z 06010KT 17/11 A2972 RMK A01 T01650106  RH  068%=      5-min Rain = 0
KMC5 250118Z 07010KT 17/11 A2972 RMK A01 T01680109  RH  068%=      5-min Rain = 0
KMC5 250119Z 06008KT 17/11 A2972 RMK A01 T01680111  RH  069%=      5-min Rain = 0
KMC5 250120Z 02005KT 17/12 A2973 RMK A01 T01660116  RH  072%=      5-min Rain = 0
KMC5 250121Z 04006KT 16/11 A2972 RMK A01 T01640114  RH  072%=      5-min Rain = 0
KMC5 250122Z 05007KT 16/11 A2972 RMK A01 T01640109  RH  070%=      5-min Rain = 0
KMC5 250123Z 06006KT 17/11 A2972 RMK A01 T01660106  RH  067%=      5-min Rain = 0
KMC5 250124Z 04004KT 17/11 A2972 RMK A01 T01680106  RH  066%=      5-min Rain = 0
KMC5 250125Z 01003KT 17/10 A2972 RMK A01 T01700102  RH  064%=      5-min Rain = 0
KMC5 250126Z 25005KT 17/11 A2973 RMK A01 T01730109  RH  066%=      5-min Rain = 0
KMC5 250127Z 27002KT 17/11 A2973 RMK A01 T01690111  RH  068%=      5-min Rain = 0
KMC5 250128Z 26003KT 17/11 A2973 RMK A01 T01660108  RH  069%=      5-min Rain = 0
KMC5 250129Z 19002KT 17/11 A2973 RMK A01 T01660107  RH  068%=      5-min Rain = 0
KMC5 250130Z 13005KT 17/11 A2973 RMK A01 T01670109  RH  068%=      5-min Rain = 0
KMC5 250131Z 15008KT 17/11 A2973 RMK A01 T01650114  RH  071%=      5-min Rain = 0
KMC5 250132Z 14009KT 16/12 A2974 RMK A01 T01630115  RH  073%=      5-min Rain = 0
KMC5 250133Z 13008KT 16/11 A2974 RMK A01 T01610114  RH  074%=      5-min Rain = 0
KMC5 250134Z 12010KT 16/12 A2975 RMK A01 T01610115  RH  074%=      5-min Rain = 0
KMC5 250135Z 11010KT 16/11 A2975 RMK A01 T01610112  RH  073%=      5-min Rain = 0
KMC5 250136Z 11009KT 16/11 A2975 RMK A01 T01610113  RH  073%=      5-min Rain = 0
KMC5 250137Z 12010KT 16/12 A2975 RMK A01 T01610115  RH  074%=      5-min Rain = 0
KMC5 250138Z 11010KT 16/12 A2975 RMK A01 T01600117  RH  076%=      5-min Rain = 0
KMC5 250139Z 10010KT 16/12 A2975 RMK A01 T01580115  RH  075%=      5-min Rain = 0
KMC5 250140Z 09009KT 16/11 A2975 RMK A01 T01580114  RH  075%=      5-min Rain = 0
KMC5 250141Z 09010KT 16/11 A2975 RMK A01 T01590110  RH  072%=      5-min Rain = 0
KMC5 250142Z 09010KT 16/11 A2975 RMK A01 T01630112  RH  071%=      5-min Rain = 0
KMC5 250143Z 08012KT 17/11 A2975 RMK A01 T01650111  RH  070%=      5-min Rain = 0
KMC5 250144Z 08013KT 17/11 A2974 RMK A01 T01650112  RH  071%=      5-min Rain = 0
KMC5 250145Z 08014KT 17/11 A2974 RMK A01 T01650111  RH  070%=      5-min Rain = 0
KMC5 250146Z 08014KT 16/11 A2974 RMK A01 T01640113  RH  072%=      5-min Rain = 0
KMC5 250147Z 07015KT 16/11 A2974 RMK A01 T01620113  RH  073%=      5-min Rain = 0
KMC5 250148Z 07015KT 16/12 A2973 RMK A01 T01610115  RH  074%=      5-min Rain = 0
KMC5 250149Z 07014KT 16/12 A2973 RMK A01 T01590115  RH  075%=      5-min Rain = 0
KMC5 250150Z 07014KT 16/12 A2972 RMK A01 T01580115  RH  075%=      5-min Rain = 0
KMC5 250151Z 06013KT 16/12 A2971 RMK A01 T01570117  RH  077%=      5-min Rain = 0
KMC5 250152Z 05013KT 16/12 A297 RMK A01 T01560119  RH  079%=      5-min Rain = 0
KMC5 250153Z 04016KT 15/12 A297 RMK A01 T01540120  RH  080%=      5-min Rain = 0
KMC5 250154Z 04019KT 15/12 A297 RMK A01 T01540118  RH  079%=      5-min Rain = 0
KMC5 250155Z 04020KT 16/12 A297 RMK A01 T01550118  RH  078%=      5-min Rain = 0
KMC5 250156Z 04023KT 16/12 A297 RMK A01 T01560117  RH  078%=      5-min Rain = 0
KMC5 250157Z 05021KT 16/11 A2969 RMK A01 T01590114  RH  075%=      5-min Rain = 0
KMC5 250158Z 05019KT 16/12 A2968 RMK A01 T01610117  RH  075%=      5-min Rain = 0
KMC5 250159Z 05020KT 16/12 A2968 RMK A01 T01590119  RH  077%=      5-min Rain = 0
KMC5 250200Z 04022KT 16/12 A2968 RMK A01 T01570120  RH  078%=      5-min Rain = 0
KMC5 250201Z 03022KT 16/12 A2968 RMK A01 T01580118  RH  077%=      5-min Rain = 0
KMC5 250202Z 03023KT 16/12 A2968 RMK A01 T01590120  RH  077%=      5-min Rain = 0
KMC5 250203Z 03022KT 16/12 A2968 RMK A01 T01590119  RH  077%=      5-min Rain = 0
KMC5 250204Z 03018KT 16/11 A2968 RMK A01 T01600113  RH  074%=      5-min Rain = 0
KMC5 250205Z 02018KT 16/12 A2968 RMK A01 T01610119  RH  076%=      5-min Rain = 0
KMC5 250206Z 03017KT 16/12 A2968 RMK A01 T01590120  RH  078%=      5-min Rain = 0
KMC5 250207Z 03018KT 16/12 A2968 RMK A01 T01570122  RH  080%=      5-min Rain = 0
KMC5 250208Z 04020KT 16/12 A2968 RMK A01 T01550123  RH  081%=      5-min Rain = 0
KMC5 250209Z 03021KT 16/12 A2968 RMK A01 T01550121  RH  080%=      5-min Rain = 0
KMC5 250210Z 03018KT 16/12 A2969 RMK A01 T01580119  RH  078%=      5-min Rain = 0
KMC5 250211Z 04019KT 16/12 A297 RMK A01 T01610118  RH  076%=      5-min Rain = 0
KMC5 250212Z 05015KT 16/12 A297 RMK A01 T01620120  RH  076%=      5-min Rain = 0
KMC5 250213Z 05015KT 16/12 A2971 RMK A01 T01610122  RH  077%=      5-min Rain = 0
KMC5 250214Z 05010KT 16/12 A2971 RMK A01 T01600123  RH  079%=      5-min Rain = 0
KMC5 250215Z 05009KT 16/12 A2971 RMK A01 T01580124  RH  080%=      5-min Rain = 0
KMC5 250216Z 06009KT 16/12 A2971 RMK A01 T01570124  RH  081%=      5-min Rain = 0
KMC5 250217Z 07009KT 16/13 A2972 RMK A01 T01570125  RH  082%=      5-min Rain = 0
KMC5 250218Z 06010KT 16/12 A2972 RMK A01 T01570124  RH  081%=      5-min Rain = 0
KMC5 250219Z 07009KT 16/12 A2972 RMK A01 T01580123  RH  080%=      5-min Rain = 0
KMC5 250220Z 07008KT 16/12 A2971 RMK A01 T01590123  RH  079%=      5-min Rain = 0
KMC5 250221Z 07007KT 16/12 A2971 RMK A01 T01600123  RH  079%=      5-min Rain = 0
KMC5 250222Z 07010KT 16/12 A2971 RMK A01 T01600123  RH  079%=      5-min Rain = 0
KMC5 250223Z 08009KT 16/12 A2971 RMK A01 T01600122  RH  078%=      5-min Rain = 0
KMC5 250224Z 08009KT 16/12 A297 RMK A01 T01610123  RH  078%=      5-min Rain = 0
KMC5 250225Z 08009KT 16/12 A297 RMK A01 T01610123  RH  078%=      5-min Rain = 0
KMC5 250226Z 08009KT 16/12 A297 RMK A01 T01600123  RH  079%=      5-min Rain = 0
KMC5 250227Z 09009KT 16/12 A297 RMK A01 T01600122  RH  078%=      5-min Rain = 0
KMC5 250228Z 08010KT 16/12 A2971 RMK A01 T01600123  RH  078%=      5-min Rain = 0
KMC5 250229Z 09011KT 16/12 A2972 RMK A01 T01600122  RH  078%=      5-min Rain = 0
KMC5 250230Z 12011KT 16/12 A2973 RMK A01 T01600123  RH  079%=      5-min Rain = 0
KMC5 250231Z 16014KT 16/12 A2974 RMK A01 T01600124  RH  079%=      5-min Rain = 0
KMC5 250232Z 17016KT 16/13 A2975 RMK A01 T01570126  RH  081%=      5-min Rain = 0
KMC5 250233Z 17015KT 16/12 A2975 RMK A01 T01550124  RH  082%=      5-min Rain = 0
KMC5 250234Z 17011KT 16/12 A2975 RMK A01 T01550122  RH  081%=      5-min Rain = 0
KMC5 250235Z 15005KT 16/12 A2975 RMK A01 T01570121  RH  079%=      5-min Rain = 0
KMC5 250236Z 11003KT 16/12 A2975 RMK A01 T01580119  RH  077%=      5-min Rain = 0
KMC5 250237Z 11005KT 16/12 A2975 RMK A01 T01590120  RH  077%=      5-min Rain = 0
KMC5 250238Z 15007KT 16/12 A2975 RMK A01 T01600119  RH  076%=      5-min Rain = 0
KMC5 250239Z 15011G16KT 16/11 A2974 RMK A01 T01630107  RH  070%=      5-min Rain = 0
KMC5 250240Z 14018G27KT 17/10 A2973 RMK A01 T01740101  RH  062%=      5-min Rain = 0
KMC5 250241Z 13020KT 18/11 A2973 RMK A01 T01830105  RH  060%=      5-min Rain = 0
KMC5 250242Z 13018KT 18/11 A2973 RMK A01 T01810114  RH  065%=      5-min Rain = 0
KMC5 250243Z 14019G24KT 17/11 A2974 RMK A01 T01740114  RH  068%=      5-min Rain = 0
KMC5 250244Z 14017KT 17/11 A2975 RMK A01 T01690110  RH  068%=      5-min Rain = 0
KMC5 250245Z 13014G19KT 17/11 A2975 RMK A01 T01670108  RH  068%=      5-min Rain = 0
KMC5 250246Z 14011KT 17/11 A2976 RMK A01 T01660111  RH  070%=      5-min Rain = 0
KMC5 250247Z 15014KT 16/11 A2976 RMK A01 T01630111  RH  071%=      5-min Rain = 0
KMC5 250248Z 16012KT 16/11 A2976 RMK A01 T01620113  RH  073%=      5-min Rain = 0
KMC5 250249Z 16018G26KT 16/11 A2975 RMK A01 T01590114  RH  074%=      5-min Rain = 0
KMC5 250250Z 15022G30KT 16/12 A2975 RMK A01 T01570115  RH  076%=      5-min Rain = 0
KMC5 250251Z 15024G29KT 16/12 A2975 RMK A01 T01550116  RH  078%=      5-min Rain = 0
KMC5 250252Z 15021KT 15/12 A2976 RMK A01 T01530116  RH  079%=      5-min Rain = 0
KMC5 250253Z 15016KT 15/12 A2976 RMK A01 T01510116  RH  080%=      5-min Rain = 0
KMC5 250254Z 14014G19KT 15/12 A2977 RMK A01 T01490117  RH  081%=      5-min Rain = 0
KMC5 250255Z 13012KT 15/12 A2977 RMK A01 T01480115  RH  080%=      5-min Rain = 0
KMC5 250256Z 14014KT 15/12 A2978 RMK A01 T01470116  RH  082%=      5-min Rain = 0
KMC5 250257Z 13012G18KT 15/12 A2979 RMK A01 T01470117  RH  082%=      5-min Rain = 0
KMC5 250258Z 13015G20KT 15/12 A2979 RMK A01 T01460117  RH  083%=      5-min Rain = 0
KMC5 250259Z 13016KT 15/12 A2979 RMK A01 T01460118  RH  083%=      5-min Rain = 0
KMC5 250300Z 13019G25KT 15/12 A2979 RMK A01 T01450117  RH  083%=      5-min Rain = 0
KMC5 250301Z 12022G29KT 14/12 A2979 RMK A01 T01440115  RH  082%=      5-min Rain = 0
KMC5 250302Z 12025KT 14/11 A298 RMK A01 T01430112  RH  081%=      5-min Rain = 0
KMC5 250303Z 12024KT 14/11 A298 RMK A01 T01430113  RH  082%=      5-min Rain = 0
KMC5 250304Z 12020KT 14/12 A2981 RMK A01 T01420115  RH  084%=      5-min Rain = 0
KMC5 250305Z 14020KT 14/12 A2982 RMK A01 T01420116  RH  084%=      5-min Rain = 0
KMC5 250306Z 15023G28KT 14/12 A2983 RMK A01 T01430115  RH  084%=      5-min Rain = 0
KMC5 250307Z 17017G22KT 14/12 A2984 RMK A01 T01440115  RH  083%=      5-min Rain = 0
KMC5 250308Z 18020KT 14/12 A2984 RMK A01 T01440116  RH  083%=      5-min Rain = 0
KMC5 250309Z 18020KT 14/12 A2985 RMK A01 T01430116  RH  084%=      5-min Rain = 0
KMC5 250310Z 17023KT 14/11 A2985 RMK A01 T01410114  RH  084%=      5-min Rain = 0
KMC5 250311Z 17021KT 14/11 A2985 RMK A01 T01420113  RH  083%=      5-min Rain = 0
KMC5 250312Z 16021G28KT 14/11 A2985 RMK A01 T01420113  RH  083%=      5-min Rain = 0
KMC5 250313Z 15021KT 14/11 A2985 RMK A01 T01420113  RH  082%=      5-min Rain = 0
KMC5 250314Z 13024G30KT 14/11 A2984 RMK A01 T01430112  RH  082%=      5-min Rain = 0
KMC5 250315Z 12023G29KT 14/11 A2984 RMK A01 T01430112  RH  082%=      5-min Rain = 0
KMC5 250316Z 11025G30KT 14/11 A2983 RMK A01 T01430113  RH  082%=      5-min Rain = 0
KMC5 250317Z 11025G33KT 14/11 A2982 RMK A01 T01430113  RH  082%=      5-min Rain = 0
KMC5 250318Z 11027KT 14/11 A2981 RMK A01 T01430113  RH  082%=      5-min Rain = 0
KMC5 250319Z 10028KT 14/11 A2982 RMK A01 T01430113  RH  082%=      5-min Rain = 0
KMC5 250320Z 11021KT 14/11 A2982 RMK A01 T01430113  RH  082%=      5-min Rain = 0
KMC5 250321Z 11017G24KT 14/12 A2982 RMK A01 T01420115  RH  084%=      5-min Rain = 0
KMC5 250322Z 12019KT 14/11 A2983 RMK A01 T01410113  RH  083%=      5-min Rain = 0
KMC5 250323Z 13016KT 14/11 A2983 RMK A01 T01430113  RH  082%=      5-min Rain = 0
KMC5 250324Z 14015G22KT 14/11 A2983 RMK A01 T01440112  RH  081%=      5-min Rain = 0
KMC5 250325Z 16013KT 15/11 A2984 RMK A01 T01450112  RH  081%=      5-min Rain = 0
KMC5 250326Z 16012KT 15/11 A2984 RMK A01 T01450111  RH  080%=      5-min Rain = 0
KMC5 250327Z 17010KT 15/11 A2984 RMK A01 T01450111  RH  080%=      5-min Rain = 0
KMC5 250328Z 16009KT 15/12 A2984 RMK A01 T01450115  RH  082%=      5-min Rain = 0
KMC5 250329Z 13012KT 14/11 A2983 RMK A01 T01430113  RH  082%=      5-min Rain = 0
KMC5 250330Z 11014KT 14/11 A2983 RMK A01 T01440111  RH  080%=      5-min Rain = 0
KMC5 250331Z 11013KT 15/11 A2983 RMK A01 T01450113  RH  081%=      5-min Rain = 0
KMC5 250332Z 10018G25KT 14/11 A2982 RMK A01 T01440114  RH  082%=      5-min Rain = 0
KMC5 250333Z 10021G26KT 14/11 A2982 RMK A01 T01440114  RH  082%=      5-min Rain = 0
KMC5 250334Z 10017KT 15/11 A2982 RMK A01 T01450114  RH  082%=      5-min Rain = 0
KMC5 250335Z 10022G27KT 15/12 A2982 RMK A01 T01450115  RH  082%=      5-min Rain = 0
KMC5 250336Z 09019KT 15/12 A2982 RMK A01 T01450116  RH  083%=      5-min Rain = 0
KMC5 250337Z 09020KT 15/12 A2982 RMK A01 T01450117  RH  083%=      5-min Rain = 0
KMC5 250338Z 09019KT 14/12 A2982 RMK A01 T01440118  RH  084%=      5-min Rain = 0
KMC5 250339Z 10021G27KT 14/12 A2982 RMK A01 T01440117  RH  084%=      5-min Rain = 0
KMC5 250340Z 10021G30KT 14/12 A2981 RMK A01 T01440117  RH  084%=      5-min Rain = 0
KMC5 250341Z 11023KT 15/11 A2981 RMK A01 T01450114  RH  082%=      5-min Rain = 0
KMC5 250342Z 11022G27KT 15/11 A2981 RMK A01 T01460114  RH  081%=      5-min Rain = 0
KMC5 250343Z 11023KT 15/12 A2981 RMK A01 T01470115  RH  082%=      5-min Rain = 0
KMC5 250344Z 11020G27KT 15/12 A298 RMK A01 T01470115  RH  081%=      5-min Rain = 0
KMC5 250345Z 11018G24KT 15/12 A298 RMK A01 T01470115  RH  081%=      5-min Rain = 0
KMC5 250346Z 11019KT 15/12 A298 RMK A01 T01470117  RH  082%=      5-min Rain = 0
KMC5 250347Z 11024G29KT 15/12 A2979 RMK A01 T01460117  RH  082%=      5-min Rain = 0
KMC5 250348Z 10030KT 15/12 A2979 RMK A01 T01460116  RH  082%=      5-min Rain = 0
KMC5 250349Z 10028KT 15/11 A2979 RMK A01 T01470114  RH  081%=      5-min Rain = 0
KMC5 250350Z 09026G31KT 15/12 A298 RMK A01 T01480115  RH  081%=      5-min Rain = 0
KMC5 250351Z 09023G28KT 15/12 A298 RMK A01 T01470116  RH  082%=      5-min Rain = 0
KMC5 250352Z 09019KT 15/12 A298 RMK A01 T01460118  RH  083%=      5-min Rain = 0
KMC5 250353Z 09019KT 15/12 A298 RMK A01 T01450118  RH  084%=      5-min Rain = 0
KMC5 250354Z 09019KT 14/12 A298 RMK A01 T01440119  RH  085%=      5-min Rain = 0
KMC5 250355Z 09019G26KT 14/12 A298 RMK A01 T01430120  RH  086%=      5-min Rain = 0
KMC5 250356Z 09017G24KT 14/12 A2979 RMK A01 T01420120  RH  087%=      5-min Rain = 0
KMC5 250357Z 08018KT 14/12 A2979 RMK A01 T01410121  RH  088%=      5-min Rain = 0
KMC5 250358Z 08020KT 14/12 A2979 RMK A01 T01400122  RH  089%=      5-min Rain = 0
KMC5 250359Z 08022KT 14/12 A2979 RMK A01 T01400122  RH  089%=      5-min Rain = 0
KMC5 250400Z 08023KT 14/12 A2979 RMK A01 T01400121  RH  088%=      5-min Rain = 0
KMC5 250401Z 08024G29KT 14/12 A2978 RMK A01 T01410120  RH  087%=      5-min Rain = 0
KMC5 250402Z 08027KT 14/12 A2978 RMK A01 T01410120  RH  087%=      5-min Rain = 0
KMC5 250403Z 08025KT 14/12 A2978 RMK A01 T01410119  RH  086%=      5-min Rain = 0
KMC5 250404Z 08025G30KT 14/12 A2977 RMK A01 T01420119  RH  086%=      5-min Rain = 0
KMC5 250405Z 09026G31KT 14/12 A2977 RMK A01 T01420119  RH  086%=      5-min Rain = 0
KMC5 250406Z 09027KT 14/12 A2976 RMK A01 T01420120  RH  087%=      5-min Rain = 0
KMC5 250407Z 09027G33KT 14/12 A2976 RMK A01 T01410120  RH  087%=      5-min Rain = 0
KMC5 250408Z 09029KT 14/12 A2976 RMK A01 T01420119  RH  086%=      5-min Rain = 0
KMC5 250409Z 09029G36KT 14/12 A2976 RMK A01 T01430119  RH  086%=      5-min Rain = 0
KMC5 250410Z 09028G35KT 14/12 A2976 RMK A01 T01440120  RH  085%=      5-min Rain = 0
KMC5 250411Z 09031G37KT 14/12 A2976 RMK A01 T01440118  RH  084%=      5-min Rain = 0
KMC5 250412Z 09026KT 15/12 A2976 RMK A01 T01460117  RH  083%=      5-min Rain = 0
KMC5 250413Z 09028G39KT 15/12 A2976 RMK A01 T01470118  RH  083%=      5-min Rain = 0
KMC5 250414Z 09028G35KT 15/12 A2976 RMK A01 T01470118  RH  083%=      5-min Rain = 0
KMC5 250415Z 09026G34KT 15/12 A2977 RMK A01 T01480119  RH  083%=      5-min Rain = 0
KMC5 250416Z 09022G27KT 15/12 A2977 RMK A01 T01480120  RH  083%=      5-min Rain = 0
KMC5 250417Z 09022G27KT 15/12 A2978 RMK A01 T01480121  RH  084%=      5-min Rain = 0
KMC5 250418Z 09026G33KT 15/12 A2978 RMK A01 T01480121  RH  084%=      5-min Rain = 0
KMC5 250419Z 09025G31KT 15/12 A2978 RMK A01 T01480118  RH  082%=      5-min Rain = 0
KMC5 250420Z 09025G30KT 15/12 A2978 RMK A01 T01490119  RH  083%=      5-min Rain = 0
KMC5 250421Z 09026G32KT 15/12 A2978 RMK A01 T01490119  RH  083%=      5-min Rain = 0
KMC5 250422Z 09024G29KT 15/12 A2978 RMK A01 T01490120  RH  083%=      5-min Rain = 0
KMC5 250423Z 10027KT 15/12 A2978 RMK A01 T01490119  RH  083%=      5-min Rain = 0
KMC5 250424Z 10023G28KT 15/12 A2978 RMK A01 T01490119  RH  082%=      5-min Rain = 0
KMC5 250425Z 10025KT 15/12 A2978 RMK A01 T01490120  RH  083%=      5-min Rain = 0
KMC5 250426Z 10021G27KT 15/12 A2978 RMK A01 T01490121  RH  083%=      5-min Rain = 0
KMC5 250427Z 10023G29KT 15/12 A2978 RMK A01 T01490121  RH  083%=      5-min Rain = 0
KMC5 250428Z 10023G30KT 15/12 A2978 RMK A01 T01490120  RH  083%=      5-min Rain = 0
KMC5 250429Z 11026G31KT 15/12 A2978 RMK A01 T01490120  RH  083%=      5-min Rain = 0
KMC5 250430Z 11025G30KT 15/12 A2977 RMK A01 T01500120  RH  082%=      5-min Rain = 0
KMC5 250431Z 10023G28KT 15/12 A2977 RMK A01 T01500120  RH  083%=      5-min Rain = 0
KMC5 250432Z 10024KT 15/12 A2977 RMK A01 T01500121  RH  083%=      5-min Rain = 0
KMC5 250433Z 10023G28KT 15/12 A2977 RMK A01 T01490121  RH  083%=      5-min Rain = 0
KMC5 250434Z 10026G31KT 15/12 A2977 RMK A01 T01490120  RH  083%=      5-min Rain = 0
KMC5 250435Z 10025G30KT 15/12 A2977 RMK A01 T01490119  RH  082%=      5-min Rain = 0
KMC5 250436Z 09020G27KT 15/12 A2977 RMK A01 T01490120  RH  082%=      5-min Rain = 0
KMC5 250437Z 10022G28KT 15/12 A2977 RMK A01 T01490120  RH  083%=      5-min Rain = 0
KMC5 250438Z 09022KT 15/12 A2977 RMK A01 T01490120  RH  083%=      5-min Rain = 0
KMC5 250439Z 10020KT 15/12 A2977 RMK A01 T01480120  RH  083%=      5-min Rain = 0
KMC5 250440Z 10020KT 15/12 A2977 RMK A01 T01480121  RH  084%=      5-min Rain = 0
KMC5 250441Z 10017G22KT 15/12 A2978 RMK A01 T01480121  RH  084%=      5-min Rain = 0
KMC5 250442Z 10018KT 15/12 A2978 RMK A01 T01470121  RH  084%=      5-min Rain = 0
KMC5 250443Z 10019KT 15/12 A2978 RMK A01 T01470120  RH  084%=      5-min Rain = 0
KMC5 250444Z 10017G23KT 15/12 A2978 RMK A01 T01470122  RH  085%=      5-min Rain = 0
KMC5 250445Z 10021G26KT 15/12 A2978 RMK A01 T01470122  RH  085%=      5-min Rain = 0
KMC5 250446Z 10026KT 15/12 A2978 RMK A01 T01460120  RH  084%=      5-min Rain = 0
KMC5 250447Z 10022G27KT 15/12 A2978 RMK A01 T01470120  RH  084%=      5-min Rain = 0
KMC5 250448Z 10021G27KT 15/12 A2978 RMK A01 T01470121  RH  084%=      5-min Rain = 0
KMC5 250449Z 10027G33KT 15/12 A2978 RMK A01 T01470120  RH  084%=      5-min Rain = 0
KMC5 250450Z 10024G29KT 15/12 A2978 RMK A01 T01470120  RH  083%=      5-min Rain = 0
KMC5 250451Z 10020G27KT 15/12 A2978 RMK A01 T01470120  RH  084%=      5-min Rain = 0
KMC5 250452Z 09022G27KT 15/12 A2978 RMK A01 T01470120  RH  084%=      5-min Rain = 0
KMC5 250453Z 09024KT 15/12 A2978 RMK A01 T01460120  RH  084%=      5-min Rain = 0
KMC5 250454Z 08025G31KT 15/12 A2977 RMK A01 T01470119  RH  084%=      5-min Rain = 0
KMC5 250455Z 09024G29KT 15/12 A2977 RMK A01 T01470119  RH  084%=      5-min Rain = 0
KMC5 250456Z 08023G29KT 15/12 A2977 RMK A01 T01470119  RH  084%=      5-min Rain = 0
KMC5 250457Z 08021G28KT 15/12 A2977 RMK A01 T01470120  RH  084%=      5-min Rain = 0
KMC5 250458Z 09023KT 15/12 A2977 RMK A01 T01460120  RH  084%=      5-min Rain = 0
KMC5 250459Z 09023G28KT 15/12 A2977 RMK A01 T01460120  RH  084%=      5-min Rain = 0

Page generated in 0.0964 seconds.